<?xml version="1.0" encoding="UTF-8"?>
<gpx xmlns="http://www.topografix.com/GPX/1/1" xmlns:xsi="http://www.w3.org/2001/XMLSchema-instance" version="1.1" xsi:schemaLocation="http://www.topografix.com/GPX/1/1 http://www.topografix.com/GPX/1/1/gpx.xsd">
  <metadata>
    <name>Valgjärve I Aquabike</name>
  </metadata>
  <trk>
    <name>Valgjärve I Aquabike</name>
    <trkseg>
      <trkpt lat="58.086135" lon="26.645042">
        <ele>185.43904</ele>
        <time>2020-07-25T15:54:00.000Z</time>
      </trkpt>
      <trkpt lat="58.085731" lon="26.644869">
        <ele>185.439045</ele>
        <time>2020-07-25T15:54:05.000Z</time>
      </trkpt>
      <trkpt lat="58.085074" lon="26.644467">
        <ele>185.786685</ele>
        <time>2020-07-25T15:54:13.000Z</time>
      </trkpt>
      <trkpt lat="58.085007" lon="26.644372">
        <ele>185.944741</ele>
        <time>2020-07-25T15:54:14.000Z</time>
      </trkpt>
      <trkpt lat="58.084948" lon="26.644297">
        <ele>186.044251</ele>
        <time>2020-07-25T15:54:15.000Z</time>
      </trkpt>
      <trkpt lat="58.084461" lon="26.643999">
        <ele>186.94422</ele>
        <time>2020-07-25T15:54:21.000Z</time>
      </trkpt>
      <trkpt lat="58.084339" lon="26.644007">
        <ele>187.144349</ele>
        <time>2020-07-25T15:54:22.000Z</time>
      </trkpt>
      <trkpt lat="58.084232" lon="26.644105">
        <ele>187.354048</ele>
        <time>2020-07-25T15:54:23.000Z</time>
      </trkpt>
      <trkpt lat="58.084134" lon="26.644233">
        <ele>187.56204</ele>
        <time>2020-07-25T15:54:24.000Z</time>
      </trkpt>
      <trkpt lat="58.083953" lon="26.644446">
        <ele>187.941578</ele>
        <time>2020-07-25T15:54:26.000Z</time>
      </trkpt>
      <trkpt lat="58.083879" lon="26.644542">
        <ele>188.070769</ele>
        <time>2020-07-25T15:54:27.000Z</time>
      </trkpt>
      <trkpt lat="58.083923" lon="26.644671">
        <ele>188.206915</ele>
        <time>2020-07-25T15:54:28.000Z</time>
      </trkpt>
      <trkpt lat="58.083919" lon="26.64467">
        <ele>188.215798</ele>
        <time>2020-07-25T15:54:28.000Z</time>
      </trkpt>
      <trkpt lat="58.083935" lon="26.644682">
        <ele>188.232749</ele>
        <time>2020-07-25T15:54:28.000Z</time>
      </trkpt>
      <trkpt lat="58.083927" lon="26.644687">
        <ele>188.235969</ele>
        <time>2020-07-25T15:54:28.000Z</time>
      </trkpt>
      <trkpt lat="58.083942" lon="26.644773">
        <ele>188.310078</ele>
        <time>2020-07-25T15:54:29.000Z</time>
      </trkpt>
      <trkpt lat="58.084073" lon="26.645168">
        <ele>188.972512</ele>
        <time>2020-07-25T15:54:32.000Z</time>
      </trkpt>
      <trkpt lat="58.084247" lon="26.645612">
        <ele>190.116321</ele>
        <time>2020-07-25T15:54:35.000Z</time>
      </trkpt>
      <trkpt lat="58.084737" lon="26.646651">
        <ele>193.036194</ele>
        <time>2020-07-25T15:54:43.000Z</time>
      </trkpt>
      <trkpt lat="58.084857" lon="26.646912">
        <ele>193.732988</ele>
        <time>2020-07-25T15:54:45.000Z</time>
      </trkpt>
      <trkpt lat="58.085025" lon="26.647295">
        <ele>194.739698</ele>
        <time>2020-07-25T15:54:48.000Z</time>
      </trkpt>
      <trkpt lat="58.085383" lon="26.648272">
        <ele>196.568753</ele>
        <time>2020-07-25T15:54:55.000Z</time>
      </trkpt>
      <trkpt lat="58.085401" lon="26.648323">
        <ele>196.669791</ele>
        <time>2020-07-25T15:54:55.000Z</time>
      </trkpt>
      <trkpt lat="58.085898" lon="26.650131">
        <ele>199.271608</ele>
        <time>2020-07-25T15:55:07.000Z</time>
      </trkpt>
      <trkpt lat="58.08625" lon="26.651781">
        <ele>199.064106</ele>
        <time>2020-07-25T15:55:17.000Z</time>
      </trkpt>
      <trkpt lat="58.086287" lon="26.651923">
        <ele>198.960959</ele>
        <time>2020-07-25T15:55:18.000Z</time>
      </trkpt>
      <trkpt lat="58.08633" lon="26.652234">
        <ele>198.738148</ele>
        <time>2020-07-25T15:55:20.000Z</time>
      </trkpt>
      <trkpt lat="58.086366" lon="26.65243">
        <ele>198.595272</ele>
        <time>2020-07-25T15:55:21.000Z</time>
      </trkpt>
      <trkpt lat="58.086394" lon="26.652699">
        <ele>198.41078</ele>
        <time>2020-07-25T15:55:23.000Z</time>
      </trkpt>
      <trkpt lat="58.08659" lon="26.654342">
        <ele>197.160415</ele>
        <time>2020-07-25T15:55:33.000Z</time>
      </trkpt>
      <trkpt lat="58.08694" lon="26.65608">
        <ele>195.441035</ele>
        <time>2020-07-25T15:55:44.000Z</time>
      </trkpt>
      <trkpt lat="58.086297" lon="26.659817">
        <ele>191.743398</ele>
        <time>2020-07-25T15:56:07.000Z</time>
      </trkpt>
      <trkpt lat="58.086057" lon="26.660622">
        <ele>190.448648</ele>
        <time>2020-07-25T15:56:12.000Z</time>
      </trkpt>
      <trkpt lat="58.084852" lon="26.662687">
        <ele>184.351922</ele>
        <time>2020-07-25T15:56:30.000Z</time>
      </trkpt>
      <trkpt lat="58.084519" lon="26.663272">
        <ele>182.520466</ele>
        <time>2020-07-25T15:56:35.000Z</time>
      </trkpt>
      <trkpt lat="58.084168" lon="26.663708">
        <ele>180.800462</ele>
        <time>2020-07-25T15:56:40.000Z</time>
      </trkpt>
      <trkpt lat="58.084092" lon="26.663782">
        <ele>180.519133</ele>
        <time>2020-07-25T15:56:41.000Z</time>
      </trkpt>
      <trkpt lat="58.08408" lon="26.663792">
        <ele>180.432227</ele>
        <time>2020-07-25T15:56:41.000Z</time>
      </trkpt>
      <trkpt lat="58.08405" lon="26.663832">
        <ele>180.291562</ele>
        <time>2020-07-25T15:56:41.000Z</time>
      </trkpt>
      <trkpt lat="58.083813" lon="26.664132">
        <ele>179.11362</ele>
        <time>2020-07-25T15:56:44.000Z</time>
      </trkpt>
      <trkpt lat="58.083743" lon="26.664208">
        <ele>178.812834</ele>
        <time>2020-07-25T15:56:45.000Z</time>
      </trkpt>
      <trkpt lat="58.083698" lon="26.664263">
        <ele>178.594389</ele>
        <time>2020-07-25T15:56:46.000Z</time>
      </trkpt>
      <trkpt lat="58.083693" lon="26.664283">
        <ele>178.570385</ele>
        <time>2020-07-25T15:56:46.000Z</time>
      </trkpt>
      <trkpt lat="58.083624" lon="26.664367">
        <ele>178.216998</ele>
        <time>2020-07-25T15:56:47.000Z</time>
      </trkpt>
      <trkpt lat="58.083276" lon="26.665075">
        <ele>176.086075</ele>
        <time>2020-07-25T15:56:53.000Z</time>
      </trkpt>
      <trkpt lat="58.082951" lon="26.665955">
        <ele>173.722324</ele>
        <time>2020-07-25T15:56:59.000Z</time>
      </trkpt>
      <trkpt lat="58.082803" lon="26.666488">
        <ele>172.381351</ele>
        <time>2020-07-25T15:57:03.000Z</time>
      </trkpt>
      <trkpt lat="58.082538" lon="26.668106">
        <ele>168.80049</ele>
        <time>2020-07-25T15:57:13.000Z</time>
      </trkpt>
      <trkpt lat="58.082418" lon="26.669566">
        <ele>165.998913</ele>
        <time>2020-07-25T15:57:22.000Z</time>
      </trkpt>
      <trkpt lat="58.082372" lon="26.673154">
        <ele>160.34658</ele>
        <time>2020-07-25T15:57:43.000Z</time>
      </trkpt>
      <trkpt lat="58.08228" lon="26.674289">
        <ele>158.80114</ele>
        <time>2020-07-25T15:57:50.000Z</time>
      </trkpt>
      <trkpt lat="58.082023" lon="26.67584">
        <ele>157.830466</ele>
        <time>2020-07-25T15:58:00.000Z</time>
      </trkpt>
      <trkpt lat="58.081713" lon="26.677127">
        <ele>157.052936</ele>
        <time>2020-07-25T15:58:08.000Z</time>
      </trkpt>
      <trkpt lat="58.081512" lon="26.677752">
        <ele>156.818808</ele>
        <time>2020-07-25T15:58:12.000Z</time>
      </trkpt>
      <trkpt lat="58.081147" lon="26.678612">
        <ele>156.896935</ele>
        <time>2020-07-25T15:58:18.000Z</time>
      </trkpt>
      <trkpt lat="58.080134" lon="26.680383">
        <ele>157.229967</ele>
        <time>2020-07-25T15:58:33.000Z</time>
      </trkpt>
      <trkpt lat="58.079111" lon="26.68171">
        <ele>158.01855</ele>
        <time>2020-07-25T15:58:47.000Z</time>
      </trkpt>
      <trkpt lat="58.078849" lon="26.682228">
        <ele>158.373306</ele>
        <time>2020-07-25T15:58:51.000Z</time>
      </trkpt>
      <trkpt lat="58.078776" lon="26.682511">
        <ele>158.63764</ele>
        <time>2020-07-25T15:58:53.000Z</time>
      </trkpt>
      <trkpt lat="58.078683" lon="26.683502">
        <ele>159.47069</ele>
        <time>2020-07-25T15:58:59.000Z</time>
      </trkpt>
      <trkpt lat="58.078737" lon="26.684128">
        <ele>159.984876</ele>
        <time>2020-07-25T15:59:03.000Z</time>
      </trkpt>
      <trkpt lat="58.079052" lon="26.68604">
        <ele>161.626165</ele>
        <time>2020-07-25T15:59:15.000Z</time>
      </trkpt>
      <trkpt lat="58.079103" lon="26.688693">
        <ele>163.765993</ele>
        <time>2020-07-25T15:59:31.000Z</time>
      </trkpt>
      <trkpt lat="58.079001" lon="26.689551">
        <ele>164.254288</ele>
        <time>2020-07-25T15:59:36.000Z</time>
      </trkpt>
      <trkpt lat="58.078753" lon="26.691089">
        <ele>165.164002</ele>
        <time>2020-07-25T15:59:45.000Z</time>
      </trkpt>
      <trkpt lat="58.078516" lon="26.692037">
        <ele>165.71246</ele>
        <time>2020-07-25T15:59:51.000Z</time>
      </trkpt>
      <trkpt lat="58.078017" lon="26.693041">
        <ele>166.174422</ele>
        <time>2020-07-25T15:59:59.000Z</time>
      </trkpt>
      <trkpt lat="58.077638" lon="26.694242">
        <ele>166.646037</ele>
        <time>2020-07-25T16:00:07.000Z</time>
      </trkpt>
      <trkpt lat="58.076517" lon="26.696519">
        <ele>166.52615</ele>
        <time>2020-07-25T16:00:25.000Z</time>
      </trkpt>
      <trkpt lat="58.076105" lon="26.697622">
        <ele>166.10038</ele>
        <time>2020-07-25T16:00:33.000Z</time>
      </trkpt>
      <trkpt lat="58.076104" lon="26.697623">
        <ele>166.093748</ele>
        <time>2020-07-25T16:00:33.000Z</time>
      </trkpt>
      <trkpt lat="58.076096" lon="26.697634">
        <ele>166.086948</ele>
        <time>2020-07-25T16:00:33.000Z</time>
      </trkpt>
      <trkpt lat="58.076086" lon="26.697647">
        <ele>166.076193</ele>
        <time>2020-07-25T16:00:33.000Z</time>
      </trkpt>
      <trkpt lat="58.076096" lon="26.697667">
        <ele>166.066916</ele>
        <time>2020-07-25T16:00:33.000Z</time>
      </trkpt>
      <trkpt lat="58.075887" lon="26.697983">
        <ele>165.782837</ele>
        <time>2020-07-25T16:00:36.000Z</time>
      </trkpt>
      <trkpt lat="58.075859" lon="26.698055">
        <ele>165.73198</ele>
        <time>2020-07-25T16:00:37.000Z</time>
      </trkpt>
      <trkpt lat="58.075826" lon="26.69809">
        <ele>165.692244</ele>
        <time>2020-07-25T16:00:37.000Z</time>
      </trkpt>
      <trkpt lat="58.075826" lon="26.698115">
        <ele>165.676345</ele>
        <time>2020-07-25T16:00:37.000Z</time>
      </trkpt>
      <trkpt lat="58.075761" lon="26.698203">
        <ele>165.59848</ele>
        <time>2020-07-25T16:00:38.000Z</time>
      </trkpt>
      <trkpt lat="58.075212" lon="26.698899">
        <ele>164.871881</ele>
        <time>2020-07-25T16:00:45.000Z</time>
      </trkpt>
      <trkpt lat="58.074785" lon="26.69981">
        <ele>164.014407</ele>
        <time>2020-07-25T16:00:52.000Z</time>
      </trkpt>
      <trkpt lat="58.07459" lon="26.700323">
        <ele>163.476684</ele>
        <time>2020-07-25T16:00:56.000Z</time>
      </trkpt>
      <trkpt lat="58.073754" lon="26.703105">
        <ele>160.719254</ele>
        <time>2020-07-25T16:01:15.000Z</time>
      </trkpt>
      <trkpt lat="58.073213" lon="26.704269">
        <ele>159.403352</ele>
        <time>2020-07-25T16:01:24.000Z</time>
      </trkpt>
      <trkpt lat="58.072381" lon="26.70555">
        <ele>157.469577</ele>
        <time>2020-07-25T16:01:36.000Z</time>
      </trkpt>
      <trkpt lat="58.072223" lon="26.705904">
        <ele>156.978415</ele>
        <time>2020-07-25T16:01:39.000Z</time>
      </trkpt>
      <trkpt lat="58.072044" lon="26.706482">
        <ele>156.291833</ele>
        <time>2020-07-25T16:01:43.000Z</time>
      </trkpt>
      <trkpt lat="58.071688" lon="26.707649">
        <ele>154.784811</ele>
        <time>2020-07-25T16:01:51.000Z</time>
      </trkpt>
      <trkpt lat="58.070707" lon="26.70994">
        <ele>150.426552</ele>
        <time>2020-07-25T16:02:08.000Z</time>
      </trkpt>
      <trkpt lat="58.070045" lon="26.711483">
        <ele>150.034174</ele>
        <time>2020-07-25T16:02:20.000Z</time>
      </trkpt>
      <trkpt lat="58.070707" lon="26.709949">
        <ele>150.488129</ele>
        <time>2020-07-25T16:02:32.000Z</time>
      </trkpt>
      <trkpt lat="58.071699" lon="26.707648">
        <ele>154.79979</ele>
        <time>2020-07-25T16:02:49.000Z</time>
      </trkpt>
      <trkpt lat="58.072055" lon="26.706477">
        <ele>156.267056</ele>
        <time>2020-07-25T16:02:57.000Z</time>
      </trkpt>
      <trkpt lat="58.072234" lon="26.705907">
        <ele>156.96893</ele>
        <time>2020-07-25T16:03:01.000Z</time>
      </trkpt>
      <trkpt lat="58.072393" lon="26.705543">
        <ele>157.47106</ele>
        <time>2020-07-25T16:03:04.000Z</time>
      </trkpt>
      <trkpt lat="58.073223" lon="26.704269">
        <ele>159.400797</ele>
        <time>2020-07-25T16:03:16.000Z</time>
      </trkpt>
      <trkpt lat="58.073764" lon="26.703122">
        <ele>160.717289</ele>
        <time>2020-07-25T16:03:25.000Z</time>
      </trkpt>
      <trkpt lat="58.074599" lon="26.700307">
        <ele>163.484825</ele>
        <time>2020-07-25T16:03:44.000Z</time>
      </trkpt>
      <trkpt lat="58.07479" lon="26.69981">
        <ele>164.024902</ele>
        <time>2020-07-25T16:03:48.000Z</time>
      </trkpt>
      <trkpt lat="58.07521" lon="26.698901">
        <ele>164.856619</ele>
        <time>2020-07-25T16:03:55.000Z</time>
      </trkpt>
      <trkpt lat="58.075768" lon="26.698203">
        <ele>165.607476</ele>
        <time>2020-07-25T16:04:02.000Z</time>
      </trkpt>
      <trkpt lat="58.075822" lon="26.69811">
        <ele>165.687939</ele>
        <time>2020-07-25T16:04:03.000Z</time>
      </trkpt>
      <trkpt lat="58.075833" lon="26.698085">
        <ele>165.704357</ele>
        <time>2020-07-25T16:04:03.000Z</time>
      </trkpt>
      <trkpt lat="58.075859" lon="26.698054">
        <ele>165.745416</ele>
        <time>2020-07-25T16:04:03.000Z</time>
      </trkpt>
      <trkpt lat="58.075892" lon="26.697991">
        <ele>165.797975</ele>
        <time>2020-07-25T16:04:04.000Z</time>
      </trkpt>
      <trkpt lat="58.076083" lon="26.69766">
        <ele>166.091518</ele>
        <time>2020-07-25T16:04:07.000Z</time>
      </trkpt>
      <trkpt lat="58.076093" lon="26.697659">
        <ele>166.101118</ele>
        <time>2020-07-25T16:04:07.000Z</time>
      </trkpt>
      <trkpt lat="58.076095" lon="26.69764">
        <ele>166.112222</ele>
        <time>2020-07-25T16:04:07.000Z</time>
      </trkpt>
      <trkpt lat="58.0761" lon="26.697624">
        <ele>166.119255</ele>
        <time>2020-07-25T16:04:07.000Z</time>
      </trkpt>
      <trkpt lat="58.07611" lon="26.697615">
        <ele>166.126124</ele>
        <time>2020-07-25T16:04:07.000Z</time>
      </trkpt>
      <trkpt lat="58.076511" lon="26.696522">
        <ele>166.505938</ele>
        <time>2020-07-25T16:04:15.000Z</time>
      </trkpt>
      <trkpt lat="58.077637" lon="26.694249">
        <ele>166.621058</ele>
        <time>2020-07-25T16:04:33.000Z</time>
      </trkpt>
      <trkpt lat="58.078012" lon="26.693052">
        <ele>166.174409</ele>
        <time>2020-07-25T16:04:41.000Z</time>
      </trkpt>
      <trkpt lat="58.078508" lon="26.692032">
        <ele>165.736899</ele>
        <time>2020-07-25T16:04:49.000Z</time>
      </trkpt>
      <trkpt lat="58.078747" lon="26.691098">
        <ele>165.161159</ele>
        <time>2020-07-25T16:04:55.000Z</time>
      </trkpt>
      <trkpt lat="58.079003" lon="26.689555">
        <ele>164.262056</ele>
        <time>2020-07-25T16:05:05.000Z</time>
      </trkpt>
      <trkpt lat="58.0791" lon="26.688695">
        <ele>163.755026</ele>
        <time>2020-07-25T16:05:10.000Z</time>
      </trkpt>
      <trkpt lat="58.079064" lon="26.686038">
        <ele>161.636982</ele>
        <time>2020-07-25T16:05:26.000Z</time>
      </trkpt>
      <trkpt lat="58.078728" lon="26.684115">
        <ele>159.979115</ele>
        <time>2020-07-25T16:05:38.000Z</time>
      </trkpt>
      <trkpt lat="58.078699" lon="26.683511">
        <ele>159.45486</ele>
        <time>2020-07-25T16:05:42.000Z</time>
      </trkpt>
      <trkpt lat="58.078778" lon="26.682505">
        <ele>158.605486</ele>
        <time>2020-07-25T16:05:48.000Z</time>
      </trkpt>
      <trkpt lat="58.078843" lon="26.682223">
        <ele>158.335981</ele>
        <time>2020-07-25T16:05:50.000Z</time>
      </trkpt>
      <trkpt lat="58.079104" lon="26.681709">
        <ele>158.044215</ele>
        <time>2020-07-25T16:05:54.000Z</time>
      </trkpt>
      <trkpt lat="58.080132" lon="26.680377">
        <ele>157.216925</ele>
        <time>2020-07-25T16:06:08.000Z</time>
      </trkpt>
      <trkpt lat="58.081137" lon="26.678613">
        <ele>156.884706</ele>
        <time>2020-07-25T16:06:23.000Z</time>
      </trkpt>
      <trkpt lat="58.08151" lon="26.677755">
        <ele>156.789927</ele>
        <time>2020-07-25T16:06:30.000Z</time>
      </trkpt>
      <trkpt lat="58.081722" lon="26.67713">
        <ele>157.092789</ele>
        <time>2020-07-25T16:06:34.000Z</time>
      </trkpt>
      <trkpt lat="58.082033" lon="26.675841">
        <ele>157.81695</ele>
        <time>2020-07-25T16:06:42.000Z</time>
      </trkpt>
      <trkpt lat="58.082272" lon="26.674276">
        <ele>158.853331</ele>
        <time>2020-07-25T16:06:52.000Z</time>
      </trkpt>
      <trkpt lat="58.082377" lon="26.67316">
        <ele>160.3669</ele>
        <time>2020-07-25T16:06:59.000Z</time>
      </trkpt>
      <trkpt lat="58.082411" lon="26.669563">
        <ele>165.999894</ele>
        <time>2020-07-25T16:07:20.000Z</time>
      </trkpt>
      <trkpt lat="58.082551" lon="26.668097">
        <ele>168.758075</ele>
        <time>2020-07-25T16:07:29.000Z</time>
      </trkpt>
      <trkpt lat="58.082805" lon="26.666492">
        <ele>172.385927</ele>
        <time>2020-07-25T16:07:39.000Z</time>
      </trkpt>
      <trkpt lat="58.082952" lon="26.665964">
        <ele>173.730228</ele>
        <time>2020-07-25T16:07:43.000Z</time>
      </trkpt>
      <trkpt lat="58.083274" lon="26.665084">
        <ele>176.099846</ele>
        <time>2020-07-25T16:07:49.000Z</time>
      </trkpt>
      <trkpt lat="58.083627" lon="26.664359">
        <ele>178.220238</ele>
        <time>2020-07-25T16:07:55.000Z</time>
      </trkpt>
      <trkpt lat="58.083698" lon="26.664269">
        <ele>178.573249</ele>
        <time>2020-07-25T16:07:56.000Z</time>
      </trkpt>
      <trkpt lat="58.08371" lon="26.664274">
        <ele>178.597237</ele>
        <time>2020-07-25T16:07:56.000Z</time>
      </trkpt>
      <trkpt lat="58.083756" lon="26.664218">
        <ele>178.815455</ele>
        <time>2020-07-25T16:07:57.000Z</time>
      </trkpt>
      <trkpt lat="58.083819" lon="26.66414">
        <ele>179.115925</ele>
        <time>2020-07-25T16:07:58.000Z</time>
      </trkpt>
      <trkpt lat="58.084057" lon="26.663846">
        <ele>180.292649</ele>
        <time>2020-07-25T16:08:01.000Z</time>
      </trkpt>
      <trkpt lat="58.084088" lon="26.663805">
        <ele>180.433176</ele>
        <time>2020-07-25T16:08:01.000Z</time>
      </trkpt>
      <trkpt lat="58.0841" lon="26.663775">
        <ele>180.520004</ele>
        <time>2020-07-25T16:08:01.000Z</time>
      </trkpt>
      <trkpt lat="58.084166" lon="26.66371">
        <ele>180.801049</ele>
        <time>2020-07-25T16:08:02.000Z</time>
      </trkpt>
      <trkpt lat="58.084511" lon="26.663263">
        <ele>182.519269</ele>
        <time>2020-07-25T16:08:07.000Z</time>
      </trkpt>
      <trkpt lat="58.084857" lon="26.662698">
        <ele>184.339405</ele>
        <time>2020-07-25T16:08:12.000Z</time>
      </trkpt>
      <trkpt lat="58.086048" lon="26.660617">
        <ele>190.510318</ele>
        <time>2020-07-25T16:08:30.000Z</time>
      </trkpt>
      <trkpt lat="58.086292" lon="26.659802">
        <ele>191.676817</ele>
        <time>2020-07-25T16:08:36.000Z</time>
      </trkpt>
      <trkpt lat="58.086923" lon="26.656082">
        <ele>195.180571</ele>
        <time>2020-07-25T16:08:59.000Z</time>
      </trkpt>
      <trkpt lat="58.086583" lon="26.654341">
        <ele>196.470456</ele>
        <time>2020-07-25T16:09:10.000Z</time>
      </trkpt>
      <trkpt lat="58.086407" lon="26.652704">
        <ele>196.529372</ele>
        <time>2020-07-25T16:09:20.000Z</time>
      </trkpt>
      <trkpt lat="58.086376" lon="26.652433">
        <ele>196.492371</ele>
        <time>2020-07-25T16:09:22.000Z</time>
      </trkpt>
      <trkpt lat="58.086466" lon="26.652288">
        <ele>196.458377</ele>
        <time>2020-07-25T16:09:23.000Z</time>
      </trkpt>
      <trkpt lat="58.086778" lon="26.651963">
        <ele>196.370351</ele>
        <time>2020-07-25T16:09:27.000Z</time>
      </trkpt>
      <trkpt lat="58.087029" lon="26.651982">
        <ele>196.303619</ele>
        <time>2020-07-25T16:09:30.000Z</time>
      </trkpt>
      <trkpt lat="58.087135" lon="26.651845">
        <ele>196.271751</ele>
        <time>2020-07-25T16:09:31.000Z</time>
      </trkpt>
      <trkpt lat="58.087186" lon="26.651731">
        <ele>196.250726</ele>
        <time>2020-07-25T16:09:32.000Z</time>
      </trkpt>
      <trkpt lat="58.087287" lon="26.651596">
        <ele>195.931621</ele>
        <time>2020-07-25T16:09:33.000Z</time>
      </trkpt>
      <trkpt lat="58.087932" lon="26.650942">
        <ele>193.807231</ele>
        <time>2020-07-25T16:09:41.000Z</time>
      </trkpt>
      <trkpt lat="58.087981" lon="26.650889">
        <ele>193.636271</ele>
        <time>2020-07-25T16:09:42.000Z</time>
      </trkpt>
      <trkpt lat="58.088058" lon="26.650827">
        <ele>193.416068</ele>
        <time>2020-07-25T16:09:43.000Z</time>
      </trkpt>
      <trkpt lat="58.088354" lon="26.650565">
        <ele>192.432022</ele>
        <time>2020-07-25T16:09:47.000Z</time>
      </trkpt>
      <trkpt lat="58.08841" lon="26.650451">
        <ele>192.191341</ele>
        <time>2020-07-25T16:09:48.000Z</time>
      </trkpt>
      <trkpt lat="58.088469" lon="26.650185">
        <ele>191.757259</ele>
        <time>2020-07-25T16:09:50.000Z</time>
      </trkpt>
      <trkpt lat="58.088843" lon="26.648383">
        <ele>189.134216</ele>
        <time>2020-07-25T16:10:01.000Z</time>
      </trkpt>
      <trkpt lat="58.088917" lon="26.647729">
        <ele>188.281306</ele>
        <time>2020-07-25T16:10:05.000Z</time>
      </trkpt>
      <trkpt lat="58.089033" lon="26.647167">
        <ele>187.502844</ele>
        <time>2020-07-25T16:10:09.000Z</time>
      </trkpt>
      <trkpt lat="58.089038" lon="26.647169">
        <ele>187.492583</ele>
        <time>2020-07-25T16:10:09.000Z</time>
      </trkpt>
      <trkpt lat="58.089042" lon="26.647152">
        <ele>187.481986</ele>
        <time>2020-07-25T16:10:09.000Z</time>
      </trkpt>
      <trkpt lat="58.089049" lon="26.647135">
        <ele>187.449942</ele>
        <time>2020-07-25T16:10:09.000Z</time>
      </trkpt>
      <trkpt lat="58.089065" lon="26.647042">
        <ele>187.329537</ele>
        <time>2020-07-25T16:10:10.000Z</time>
      </trkpt>
      <trkpt lat="58.089006" lon="26.646849">
        <ele>187.055489</ele>
        <time>2020-07-25T16:10:11.000Z</time>
      </trkpt>
      <trkpt lat="58.088885" lon="26.646802">
        <ele>186.725371</ele>
        <time>2020-07-25T16:10:12.000Z</time>
      </trkpt>
      <trkpt lat="58.088723" lon="26.646829">
        <ele>186.519542</ele>
        <time>2020-07-25T16:10:14.000Z</time>
      </trkpt>
      <trkpt lat="58.088335" lon="26.64674">
        <ele>186.105211</ele>
        <time>2020-07-25T16:10:18.000Z</time>
      </trkpt>
      <trkpt lat="58.088057" lon="26.646654">
        <ele>185.823784</ele>
        <time>2020-07-25T16:10:21.000Z</time>
      </trkpt>
      <trkpt lat="58.087869" lon="26.64647">
        <ele>185.618438</ele>
        <time>2020-07-25T16:10:23.000Z</time>
      </trkpt>
      <trkpt lat="58.087774" lon="26.646173">
        <ele>185.419183</ele>
        <time>2020-07-25T16:10:25.000Z</time>
      </trkpt>
      <trkpt lat="58.087701" lon="26.64555">
        <ele>185.07902</ele>
        <time>2020-07-25T16:10:29.000Z</time>
      </trkpt>
      <trkpt lat="58.087698" lon="26.645519">
        <ele>185.061815</ele>
        <time>2020-07-25T16:10:29.000Z</time>
      </trkpt>
      <trkpt lat="58.08765" lon="26.645235">
        <ele>184.898853</ele>
        <time>2020-07-25T16:10:31.000Z</time>
      </trkpt>
      <trkpt lat="58.087524" lon="26.645093">
        <ele>184.799016</ele>
        <time>2020-07-25T16:10:33.000Z</time>
      </trkpt>
      <trkpt lat="58.0867" lon="26.645105">
        <ele>184.847885</ele>
        <time>2020-07-25T16:10:42.000Z</time>
      </trkpt>
      <trkpt lat="58.086671" lon="26.645104">
        <ele>184.84889</ele>
        <time>2020-07-25T16:10:42.000Z</time>
      </trkpt>
      <trkpt lat="58.086529" lon="26.645086">
        <ele>184.857967</ele>
        <time>2020-07-25T16:10:44.000Z</time>
      </trkpt>
      <trkpt lat="58.086258" lon="26.645093">
        <ele>184.874249</ele>
        <time>2020-07-25T16:10:47.000Z</time>
      </trkpt>
      <trkpt lat="58.085722" lon="26.644871">
        <ele>184.97235</ele>
        <time>2020-07-25T16:10:53.000Z</time>
      </trkpt>
      <trkpt lat="58.085068" lon="26.644468">
        <ele>185.83003</ele>
        <time>2020-07-25T16:11:01.000Z</time>
      </trkpt>
      <trkpt lat="58.085005" lon="26.644363">
        <ele>185.945367</ele>
        <time>2020-07-25T16:11:02.000Z</time>
      </trkpt>
      <trkpt lat="58.084955" lon="26.644301">
        <ele>186.017994</ele>
        <time>2020-07-25T16:11:03.000Z</time>
      </trkpt>
      <trkpt lat="58.084464" lon="26.644008">
        <ele>186.674757</ele>
        <time>2020-07-25T16:11:09.000Z</time>
      </trkpt>
      <trkpt lat="58.084342" lon="26.643993">
        <ele>186.820796</ele>
        <time>2020-07-25T16:11:10.000Z</time>
      </trkpt>
      <trkpt lat="58.084235" lon="26.644095">
        <ele>186.973834</ele>
        <time>2020-07-25T16:11:11.000Z</time>
      </trkpt>
      <trkpt lat="58.084122" lon="26.644219">
        <ele>187.125607</ele>
        <time>2020-07-25T16:11:12.000Z</time>
      </trkpt>
      <trkpt lat="58.083941" lon="26.644456">
        <ele>187.81572</ele>
        <time>2020-07-25T16:11:14.000Z</time>
      </trkpt>
      <trkpt lat="58.08389" lon="26.64454">
        <ele>188.074022</ele>
        <time>2020-07-25T16:11:15.000Z</time>
      </trkpt>
      <trkpt lat="58.083931" lon="26.64466">
        <ele>188.346214</ele>
        <time>2020-07-25T16:11:16.000Z</time>
      </trkpt>
      <trkpt lat="58.083922" lon="26.644672">
        <ele>188.363988</ele>
        <time>2020-07-25T16:11:16.000Z</time>
      </trkpt>
      <trkpt lat="58.083933" lon="26.644682">
        <ele>188.397854</ele>
        <time>2020-07-25T16:11:16.000Z</time>
      </trkpt>
      <trkpt lat="58.083934" lon="26.644694">
        <ele>188.404308</ele>
        <time>2020-07-25T16:11:16.000Z</time>
      </trkpt>
      <trkpt lat="58.083947" lon="26.644763">
        <ele>188.552486</ele>
        <time>2020-07-25T16:11:16.000Z</time>
      </trkpt>
      <trkpt lat="58.08406" lon="26.645181">
        <ele>189.391567</ele>
        <time>2020-07-25T16:11:19.000Z</time>
      </trkpt>
      <trkpt lat="58.08425" lon="26.645608">
        <ele>190.39789</ele>
        <time>2020-07-25T16:11:22.000Z</time>
      </trkpt>
      <trkpt lat="58.084747" lon="26.646655">
        <ele>192.966803</ele>
        <time>2020-07-25T16:11:30.000Z</time>
      </trkpt>
      <trkpt lat="58.084862" lon="26.646923">
        <ele>193.575232</ele>
        <time>2020-07-25T16:11:32.000Z</time>
      </trkpt>
      <trkpt lat="58.085011" lon="26.647297">
        <ele>194.442059</ele>
        <time>2020-07-25T16:11:35.000Z</time>
      </trkpt>
      <trkpt lat="58.08537" lon="26.648264">
        <ele>196.546742</ele>
        <time>2020-07-25T16:11:42.000Z</time>
      </trkpt>
      <trkpt lat="58.085391" lon="26.648336">
        <ele>196.688098</ele>
        <time>2020-07-25T16:11:42.000Z</time>
      </trkpt>
      <trkpt lat="58.085893" lon="26.650143">
        <ele>199.310778</ele>
        <time>2020-07-25T16:11:54.000Z</time>
      </trkpt>
      <trkpt lat="58.086258" lon="26.651781">
        <ele>198.896048</ele>
        <time>2020-07-25T16:12:04.000Z</time>
      </trkpt>
      <trkpt lat="58.086276" lon="26.651927">
        <ele>198.860382</ele>
        <time>2020-07-25T16:12:05.000Z</time>
      </trkpt>
      <trkpt lat="58.086346" lon="26.652226">
        <ele>198.78336</ele>
        <time>2020-07-25T16:12:07.000Z</time>
      </trkpt>
      <trkpt lat="58.086377" lon="26.652445">
        <ele>198.733977</ele>
        <time>2020-07-25T16:12:08.000Z</time>
      </trkpt>
      <trkpt lat="58.086408" lon="26.652705">
        <ele>198.670199</ele>
        <time>2020-07-25T16:12:10.000Z</time>
      </trkpt>
      <trkpt lat="58.086574" lon="26.654333">
        <ele>197.156019</ele>
        <time>2020-07-25T16:12:20.000Z</time>
      </trkpt>
      <trkpt lat="58.086923" lon="26.656076">
        <ele>195.335143</ele>
        <time>2020-07-25T16:12:31.000Z</time>
      </trkpt>
      <trkpt lat="58.086296" lon="26.659819">
        <ele>191.703777</ele>
        <time>2020-07-25T16:12:54.000Z</time>
      </trkpt>
      <trkpt lat="58.08606" lon="26.660614">
        <ele>190.114029</ele>
        <time>2020-07-25T16:12:59.000Z</time>
      </trkpt>
      <trkpt lat="58.084843" lon="26.662692">
        <ele>184.344906</ele>
        <time>2020-07-25T16:13:17.000Z</time>
      </trkpt>
      <trkpt lat="58.084516" lon="26.663267">
        <ele>182.503676</ele>
        <time>2020-07-25T16:13:22.000Z</time>
      </trkpt>
      <trkpt lat="58.084158" lon="26.66371">
        <ele>180.774535</ele>
        <time>2020-07-25T16:13:27.000Z</time>
      </trkpt>
      <trkpt lat="58.084103" lon="26.663782">
        <ele>180.491698</ele>
        <time>2020-07-25T16:13:28.000Z</time>
      </trkpt>
      <trkpt lat="58.084088" lon="26.663803">
        <ele>180.404325</ele>
        <time>2020-07-25T16:13:28.000Z</time>
      </trkpt>
      <trkpt lat="58.084052" lon="26.663838">
        <ele>180.262898</ele>
        <time>2020-07-25T16:13:28.000Z</time>
      </trkpt>
      <trkpt lat="58.083812" lon="26.66414">
        <ele>179.076525</ele>
        <time>2020-07-25T16:13:31.000Z</time>
      </trkpt>
      <trkpt lat="58.08375" lon="26.664219">
        <ele>178.771931</ele>
        <time>2020-07-25T16:13:32.000Z</time>
      </trkpt>
      <trkpt lat="58.083697" lon="26.664272">
        <ele>178.550724</ele>
        <time>2020-07-25T16:13:33.000Z</time>
      </trkpt>
      <trkpt lat="58.083694" lon="26.664276">
        <ele>178.526408</ele>
        <time>2020-07-25T16:13:33.000Z</time>
      </trkpt>
      <trkpt lat="58.083622" lon="26.664371">
        <ele>178.168577</ele>
        <time>2020-07-25T16:13:34.000Z</time>
      </trkpt>
      <trkpt lat="58.083282" lon="26.665075">
        <ele>176.049368</ele>
        <time>2020-07-25T16:13:40.000Z</time>
      </trkpt>
      <trkpt lat="58.082946" lon="26.665963">
        <ele>173.73514</ele>
        <time>2020-07-25T16:13:46.000Z</time>
      </trkpt>
      <trkpt lat="58.082809" lon="26.666489">
        <ele>172.422248</ele>
        <time>2020-07-25T16:13:49.000Z</time>
      </trkpt>
      <trkpt lat="58.082548" lon="26.668095">
        <ele>168.907877</ele>
        <time>2020-07-25T16:13:59.000Z</time>
      </trkpt>
      <trkpt lat="58.082408" lon="26.669558">
        <ele>165.84041</ele>
        <time>2020-07-25T16:14:08.000Z</time>
      </trkpt>
      <trkpt lat="58.082367" lon="26.673144">
        <ele>160.155354</ele>
        <time>2020-07-25T16:14:29.000Z</time>
      </trkpt>
      <trkpt lat="58.082289" lon="26.674287">
        <ele>159.063607</ele>
        <time>2020-07-25T16:14:36.000Z</time>
      </trkpt>
      <trkpt lat="58.082023" lon="26.675837">
        <ele>157.769415</ele>
        <time>2020-07-25T16:14:46.000Z</time>
      </trkpt>
      <trkpt lat="58.081706" lon="26.677126">
        <ele>157.027159</ele>
        <time>2020-07-25T16:14:54.000Z</time>
      </trkpt>
      <trkpt lat="58.081509" lon="26.677749">
        <ele>156.985131</ele>
        <time>2020-07-25T16:14:58.000Z</time>
      </trkpt>
      <trkpt lat="58.081153" lon="26.678616">
        <ele>156.920726</ele>
        <time>2020-07-25T16:15:04.000Z</time>
      </trkpt>
      <trkpt lat="58.080145" lon="26.680381">
        <ele>157.249601</ele>
        <time>2020-07-25T16:15:19.000Z</time>
      </trkpt>
      <trkpt lat="58.079109" lon="26.681696">
        <ele>158.061428</ele>
        <time>2020-07-25T16:15:33.000Z</time>
      </trkpt>
      <trkpt lat="58.078854" lon="26.682224">
        <ele>158.553152</ele>
        <time>2020-07-25T16:15:37.000Z</time>
      </trkpt>
      <trkpt lat="58.078779" lon="26.682516">
        <ele>158.773013</ele>
        <time>2020-07-25T16:15:39.000Z</time>
      </trkpt>
      <trkpt lat="58.078691" lon="26.683502">
        <ele>159.465938</ele>
        <time>2020-07-25T16:15:45.000Z</time>
      </trkpt>
      <trkpt lat="58.078739" lon="26.684118">
        <ele>159.893612</ele>
        <time>2020-07-25T16:15:49.000Z</time>
      </trkpt>
      <trkpt lat="58.079058" lon="26.686029">
        <ele>161.626673</ele>
        <time>2020-07-25T16:16:01.000Z</time>
      </trkpt>
      <trkpt lat="58.079103" lon="26.688694">
        <ele>163.691173</ele>
        <time>2020-07-25T16:16:17.000Z</time>
      </trkpt>
      <trkpt lat="58.079007" lon="26.68955">
        <ele>164.221405</ele>
        <time>2020-07-25T16:16:22.000Z</time>
      </trkpt>
      <trkpt lat="58.078749" lon="26.691095">
        <ele>165.184166</ele>
        <time>2020-07-25T16:16:32.000Z</time>
      </trkpt>
      <trkpt lat="58.07852" lon="26.692034">
        <ele>165.644921</ele>
        <time>2020-07-25T16:16:38.000Z</time>
      </trkpt>
      <trkpt lat="58.078019" lon="26.693036">
        <ele>166.248651</ele>
        <time>2020-07-25T16:16:46.000Z</time>
      </trkpt>
      <trkpt lat="58.077638" lon="26.694242">
        <ele>166.630766</ele>
        <time>2020-07-25T16:16:54.000Z</time>
      </trkpt>
      <trkpt lat="58.076505" lon="26.696504">
        <ele>166.585866</ele>
        <time>2020-07-25T16:17:12.000Z</time>
      </trkpt>
      <trkpt lat="58.07611" lon="26.697615">
        <ele>166.003208</ele>
        <time>2020-07-25T16:17:20.000Z</time>
      </trkpt>
      <trkpt lat="58.076097" lon="26.697617">
        <ele>165.998211</ele>
        <time>2020-07-25T16:17:20.000Z</time>
      </trkpt>
      <trkpt lat="58.076094" lon="26.697635">
        <ele>165.993085</ele>
        <time>2020-07-25T16:17:20.000Z</time>
      </trkpt>
      <trkpt lat="58.076086" lon="26.697647">
        <ele>165.985011</ele>
        <time>2020-07-25T16:17:20.000Z</time>
      </trkpt>
      <trkpt lat="58.076097" lon="26.697654">
        <ele>165.978014</ele>
        <time>2020-07-25T16:17:20.000Z</time>
      </trkpt>
      <trkpt lat="58.075887" lon="26.697984">
        <ele>165.764307</ele>
        <time>2020-07-25T16:17:23.000Z</time>
      </trkpt>
      <trkpt lat="58.07586" lon="26.698042">
        <ele>165.726026</ele>
        <time>2020-07-25T16:17:23.000Z</time>
      </trkpt>
      <trkpt lat="58.075829" lon="26.698098">
        <ele>165.696142</ele>
        <time>2020-07-25T16:17:23.000Z</time>
      </trkpt>
      <trkpt lat="58.075815" lon="26.698104">
        <ele>165.68418</ele>
        <time>2020-07-25T16:17:23.000Z</time>
      </trkpt>
      <trkpt lat="58.075772" lon="26.6982">
        <ele>165.625601</ele>
        <time>2020-07-25T16:17:24.000Z</time>
      </trkpt>
      <trkpt lat="58.07521" lon="26.698901">
        <ele>164.946189</ele>
        <time>2020-07-25T16:17:31.000Z</time>
      </trkpt>
      <trkpt lat="58.074789" lon="26.699804">
        <ele>163.950755</ele>
        <time>2020-07-25T16:17:38.000Z</time>
      </trkpt>
      <trkpt lat="58.074591" lon="26.700315">
        <ele>163.438887</ele>
        <time>2020-07-25T16:17:42.000Z</time>
      </trkpt>
      <trkpt lat="58.07376" lon="26.703117">
        <ele>160.725183</ele>
        <time>2020-07-25T16:18:01.000Z</time>
      </trkpt>
      <trkpt lat="58.073225" lon="26.704263">
        <ele>159.391998</ele>
        <time>2020-07-25T16:18:10.000Z</time>
      </trkpt>
      <trkpt lat="58.072398" lon="26.705544">
        <ele>157.538983</ele>
        <time>2020-07-25T16:18:22.000Z</time>
      </trkpt>
      <trkpt lat="58.072231" lon="26.7059">
        <ele>157.103659</ele>
        <time>2020-07-25T16:18:25.000Z</time>
      </trkpt>
      <trkpt lat="58.072059" lon="26.70648">
        <ele>156.495154</ele>
        <time>2020-07-25T16:18:29.000Z</time>
      </trkpt>
      <trkpt lat="58.071686" lon="26.707656">
        <ele>154.529739</ele>
        <time>2020-07-25T16:18:37.000Z</time>
      </trkpt>
      <trkpt lat="58.070708" lon="26.709938">
        <ele>150.79454</ele>
        <time>2020-07-25T16:18:54.000Z</time>
      </trkpt>
      <trkpt lat="58.070053" lon="26.711479">
        <ele>149.494197</ele>
        <time>2020-07-25T16:19:06.000Z</time>
      </trkpt>
      <trkpt lat="58.070029" lon="26.711539">
        <ele>149.453425</ele>
        <time>2020-07-25T16:19:06.000Z</time>
      </trkpt>
      <trkpt lat="58.07005" lon="26.71148">
        <ele>149.412639</ele>
        <time>2020-07-25T16:19:06.000Z</time>
      </trkpt>
      <trkpt lat="58.070704" lon="26.709947">
        <ele>150.875182</ele>
        <time>2020-07-25T16:19:18.000Z</time>
      </trkpt>
      <trkpt lat="58.071686" lon="26.707655">
        <ele>154.481614</ele>
        <time>2020-07-25T16:19:35.000Z</time>
      </trkpt>
      <trkpt lat="58.072043" lon="26.706482">
        <ele>156.221093</ele>
        <time>2020-07-25T16:19:43.000Z</time>
      </trkpt>
      <trkpt lat="58.072221" lon="26.705901">
        <ele>157.073804</ele>
        <time>2020-07-25T16:19:47.000Z</time>
      </trkpt>
      <trkpt lat="58.072387" lon="26.705533">
        <ele>157.624248</ele>
        <time>2020-07-25T16:19:50.000Z</time>
      </trkpt>
      <trkpt lat="58.073216" lon="26.704257">
        <ele>159.379208</ele>
        <time>2020-07-25T16:20:02.000Z</time>
      </trkpt>
      <trkpt lat="58.073761" lon="26.703119">
        <ele>160.716331</ele>
        <time>2020-07-25T16:20:11.000Z</time>
      </trkpt>
      <trkpt lat="58.074602" lon="26.700317">
        <ele>163.497285</ele>
        <time>2020-07-25T16:20:30.000Z</time>
      </trkpt>
      <trkpt lat="58.074787" lon="26.699807">
        <ele>163.952235</ele>
        <time>2020-07-25T16:20:34.000Z</time>
      </trkpt>
      <trkpt lat="58.075217" lon="26.698903">
        <ele>164.836953</ele>
        <time>2020-07-25T16:20:41.000Z</time>
      </trkpt>
      <trkpt lat="58.075775" lon="26.698202">
        <ele>165.751961</ele>
        <time>2020-07-25T16:20:48.000Z</time>
      </trkpt>
      <trkpt lat="58.07583" lon="26.698115">
        <ele>165.850002</ele>
        <time>2020-07-25T16:20:49.000Z</time>
      </trkpt>
      <trkpt lat="58.075834" lon="26.698097">
        <ele>165.870035</ele>
        <time>2020-07-25T16:20:49.000Z</time>
      </trkpt>
      <trkpt lat="58.075867" lon="26.698053">
        <ele>165.900692</ele>
        <time>2020-07-25T16:20:49.000Z</time>
      </trkpt>
      <trkpt lat="58.075893" lon="26.697984">
        <ele>165.925287</ele>
        <time>2020-07-25T16:20:49.000Z</time>
      </trkpt>
      <trkpt lat="58.076086" lon="26.697665">
        <ele>166.062637</ele>
        <time>2020-07-25T16:20:52.000Z</time>
      </trkpt>
      <trkpt lat="58.076102" lon="26.697643">
        <ele>166.067124</ele>
        <time>2020-07-25T16:20:52.000Z</time>
      </trkpt>
      <trkpt lat="58.076103" lon="26.697626">
        <ele>166.072331</ele>
        <time>2020-07-25T16:20:52.000Z</time>
      </trkpt>
      <trkpt lat="58.076108" lon="26.697626">
        <ele>166.075607</ele>
        <time>2020-07-25T16:20:52.000Z</time>
      </trkpt>
      <trkpt lat="58.076109" lon="26.697624">
        <ele>166.078824</ele>
        <time>2020-07-25T16:20:52.000Z</time>
      </trkpt>
      <trkpt lat="58.076515" lon="26.696518">
        <ele>166.453257</ele>
        <time>2020-07-25T16:21:00.000Z</time>
      </trkpt>
      <trkpt lat="58.077645" lon="26.694253">
        <ele>166.540177</ele>
        <time>2020-07-25T16:21:18.000Z</time>
      </trkpt>
      <trkpt lat="58.078012" lon="26.693039">
        <ele>166.298406</ele>
        <time>2020-07-25T16:21:26.000Z</time>
      </trkpt>
      <trkpt lat="58.078504" lon="26.692026">
        <ele>165.688937</ele>
        <time>2020-07-25T16:21:34.000Z</time>
      </trkpt>
      <trkpt lat="58.078752" lon="26.691093">
        <ele>165.155648</ele>
        <time>2020-07-25T16:21:40.000Z</time>
      </trkpt>
      <trkpt lat="58.079007" lon="26.689553">
        <ele>164.262919</ele>
        <time>2020-07-25T16:21:49.000Z</time>
      </trkpt>
      <trkpt lat="58.079091" lon="26.688701">
        <ele>163.657847</ele>
        <time>2020-07-25T16:21:54.000Z</time>
      </trkpt>
      <trkpt lat="58.079058" lon="26.686034">
        <ele>161.696379</ele>
        <time>2020-07-25T16:22:10.000Z</time>
      </trkpt>
      <trkpt lat="58.078736" lon="26.684119">
        <ele>159.877744</ele>
        <time>2020-07-25T16:22:22.000Z</time>
      </trkpt>
      <trkpt lat="58.078699" lon="26.683515">
        <ele>159.312714</ele>
        <time>2020-07-25T16:22:26.000Z</time>
      </trkpt>
      <trkpt lat="58.078772" lon="26.682513">
        <ele>158.690647</ele>
        <time>2020-07-25T16:22:32.000Z</time>
      </trkpt>
      <trkpt lat="58.078849" lon="26.682219">
        <ele>158.52788</ele>
        <time>2020-07-25T16:22:34.000Z</time>
      </trkpt>
      <trkpt lat="58.079107" lon="26.681705">
        <ele>158.163884</ele>
        <time>2020-07-25T16:22:38.000Z</time>
      </trkpt>
      <trkpt lat="58.080145" lon="26.680388">
        <ele>157.209292</ele>
        <time>2020-07-25T16:22:52.000Z</time>
      </trkpt>
      <trkpt lat="58.081139" lon="26.678611">
        <ele>156.755545</ele>
        <time>2020-07-25T16:23:07.000Z</time>
      </trkpt>
      <trkpt lat="58.081514" lon="26.677756">
        <ele>157.008618</ele>
        <time>2020-07-25T16:23:14.000Z</time>
      </trkpt>
      <trkpt lat="58.081715" lon="26.677141">
        <ele>157.196238</ele>
        <time>2020-07-25T16:23:18.000Z</time>
      </trkpt>
      <trkpt lat="58.082036" lon="26.675828">
        <ele>157.567842</ele>
        <time>2020-07-25T16:23:27.000Z</time>
      </trkpt>
      <trkpt lat="58.08229" lon="26.674289">
        <ele>159.130659</ele>
        <time>2020-07-25T16:23:36.000Z</time>
      </trkpt>
      <trkpt lat="58.082374" lon="26.673155">
        <ele>160.357589</ele>
        <time>2020-07-25T16:23:43.000Z</time>
      </trkpt>
      <trkpt lat="58.082414" lon="26.669551">
        <ele>165.853382</ele>
        <time>2020-07-25T16:24:04.000Z</time>
      </trkpt>
      <trkpt lat="58.082538" lon="26.668109">
        <ele>168.758924</ele>
        <time>2020-07-25T16:24:13.000Z</time>
      </trkpt>
      <trkpt lat="58.0828" lon="26.666488">
        <ele>172.472557</ele>
        <time>2020-07-25T16:24:23.000Z</time>
      </trkpt>
      <trkpt lat="58.082959" lon="26.665954">
        <ele>173.807074</ele>
        <time>2020-07-25T16:24:27.000Z</time>
      </trkpt>
      <trkpt lat="58.083269" lon="26.665076">
        <ele>176.10888</ele>
        <time>2020-07-25T16:24:33.000Z</time>
      </trkpt>
      <trkpt lat="58.083623" lon="26.664375">
        <ele>178.19893</ele>
        <time>2020-07-25T16:24:39.000Z</time>
      </trkpt>
      <trkpt lat="58.083694" lon="26.664278">
        <ele>178.551847</ele>
        <time>2020-07-25T16:24:40.000Z</time>
      </trkpt>
      <trkpt lat="58.083712" lon="26.664267">
        <ele>178.575834</ele>
        <time>2020-07-25T16:24:40.000Z</time>
      </trkpt>
      <trkpt lat="58.083741" lon="26.664211">
        <ele>178.793993</ele>
        <time>2020-07-25T16:24:40.000Z</time>
      </trkpt>
      <trkpt lat="58.083812" lon="26.664129">
        <ele>179.094402</ele>
        <time>2020-07-25T16:24:41.000Z</time>
      </trkpt>
      <trkpt lat="58.084061" lon="26.663838">
        <ele>180.270843</ele>
        <time>2020-07-25T16:24:44.000Z</time>
      </trkpt>
      <trkpt lat="58.084092" lon="26.663803">
        <ele>180.411329</ele>
        <time>2020-07-25T16:24:44.000Z</time>
      </trkpt>
      <trkpt lat="58.0841" lon="26.663786">
        <ele>180.498132</ele>
        <time>2020-07-25T16:24:44.000Z</time>
      </trkpt>
      <trkpt lat="58.084158" lon="26.663709">
        <ele>180.779096</ele>
        <time>2020-07-25T16:24:45.000Z</time>
      </trkpt>
      <trkpt lat="58.084507" lon="26.663275">
        <ele>182.492637</ele>
        <time>2020-07-25T16:24:50.000Z</time>
      </trkpt>
      <trkpt lat="58.084853" lon="26.662688">
        <ele>184.311403</ele>
        <time>2020-07-25T16:24:55.000Z</time>
      </trkpt>
      <trkpt lat="58.086045" lon="26.660621">
        <ele>190.167805</ele>
        <time>2020-07-25T16:25:13.000Z</time>
      </trkpt>
      <trkpt lat="58.086284" lon="26.659809">
        <ele>191.404828</ele>
        <time>2020-07-25T16:25:18.000Z</time>
      </trkpt>
      <trkpt lat="58.086934" lon="26.656074">
        <ele>195.23494</ele>
        <time>2020-07-25T16:25:41.000Z</time>
      </trkpt>
      <trkpt lat="58.086587" lon="26.654326">
        <ele>196.247924</ele>
        <time>2020-07-25T16:25:52.000Z</time>
      </trkpt>
      <trkpt lat="58.0864" lon="26.652712">
        <ele>196.744557</ele>
        <time>2020-07-25T16:26:02.000Z</time>
      </trkpt>
      <trkpt lat="58.086365" lon="26.652445">
        <ele>196.825845</ele>
        <time>2020-07-25T16:26:04.000Z</time>
      </trkpt>
      <trkpt lat="58.086464" lon="26.652281">
        <ele>196.900541</ele>
        <time>2020-07-25T16:26:05.000Z</time>
      </trkpt>
      <trkpt lat="58.086762" lon="26.651968">
        <ele>196.748674</ele>
        <time>2020-07-25T16:26:09.000Z</time>
      </trkpt>
      <trkpt lat="58.087025" lon="26.651982">
        <ele>196.159972</ele>
        <time>2020-07-25T16:26:12.000Z</time>
      </trkpt>
      <trkpt lat="58.087137" lon="26.651841">
        <ele>195.878657</ele>
        <time>2020-07-25T16:26:13.000Z</time>
      </trkpt>
      <trkpt lat="58.08719" lon="26.651744">
        <ele>195.693277</ele>
        <time>2020-07-25T16:26:14.000Z</time>
      </trkpt>
      <trkpt lat="58.087284" lon="26.6516">
        <ele>195.418171</ele>
        <time>2020-07-25T16:26:15.000Z</time>
      </trkpt>
      <trkpt lat="58.087933" lon="26.650937">
        <ele>193.76454</ele>
        <time>2020-07-25T16:26:23.000Z</time>
      </trkpt>
      <trkpt lat="58.08798" lon="26.650889">
        <ele>193.631451</ele>
        <time>2020-07-25T16:26:24.000Z</time>
      </trkpt>
      <trkpt lat="58.088061" lon="26.650839">
        <ele>193.46005</ele>
        <time>2020-07-25T16:26:25.000Z</time>
      </trkpt>
      <trkpt lat="58.088355" lon="26.650566">
        <ele>192.623268</ele>
        <time>2020-07-25T16:26:29.000Z</time>
      </trkpt>
      <trkpt lat="58.088424" lon="26.65045">
        <ele>192.384872</ele>
        <time>2020-07-25T16:26:30.000Z</time>
      </trkpt>
      <trkpt lat="58.08847" lon="26.650186">
        <ele>191.954879</ele>
        <time>2020-07-25T16:26:32.000Z</time>
      </trkpt>
      <trkpt lat="58.088848" lon="26.648381">
        <ele>188.997276</ele>
        <time>2020-07-25T16:26:43.000Z</time>
      </trkpt>
      <trkpt lat="58.08892" lon="26.647728">
        <ele>187.989643</ele>
        <time>2020-07-25T16:26:47.000Z</time>
      </trkpt>
      <trkpt lat="58.089024" lon="26.647171">
        <ele>187.422809</ele>
        <time>2020-07-25T16:26:50.000Z</time>
      </trkpt>
      <trkpt lat="58.089041" lon="26.647169">
        <ele>187.416774</ele>
        <time>2020-07-25T16:26:50.000Z</time>
      </trkpt>
      <trkpt lat="58.089045" lon="26.647153">
        <ele>187.410533</ele>
        <time>2020-07-25T16:26:50.000Z</time>
      </trkpt>
      <trkpt lat="58.089043" lon="26.647134">
        <ele>187.391681</ele>
        <time>2020-07-25T16:26:50.000Z</time>
      </trkpt>
      <trkpt lat="58.089055" lon="26.647045">
        <ele>187.32083</ele>
        <time>2020-07-25T16:26:51.000Z</time>
      </trkpt>
      <trkpt lat="58.08902" lon="26.646852">
        <ele>187.159593</ele>
        <time>2020-07-25T16:26:52.000Z</time>
      </trkpt>
      <trkpt lat="58.088876" lon="26.646801">
        <ele>186.965336</ele>
        <time>2020-07-25T16:26:54.000Z</time>
      </trkpt>
      <trkpt lat="58.088724" lon="26.646828">
        <ele>186.752529</ele>
        <time>2020-07-25T16:26:56.000Z</time>
      </trkpt>
      <trkpt lat="58.088329" lon="26.646744">
        <ele>186.170021</ele>
        <time>2020-07-25T16:27:00.000Z</time>
      </trkpt>
      <trkpt lat="58.088065" lon="26.646642">
        <ele>185.774328</ele>
        <time>2020-07-25T16:27:03.000Z</time>
      </trkpt>
      <trkpt lat="58.087887" lon="26.646468">
        <ele>185.485623</ele>
        <time>2020-07-25T16:27:05.000Z</time>
      </trkpt>
      <trkpt lat="58.087775" lon="26.646175">
        <ele>185.205483</ele>
        <time>2020-07-25T16:27:07.000Z</time>
      </trkpt>
      <trkpt lat="58.087709" lon="26.645554">
        <ele>185.085659</ele>
        <time>2020-07-25T16:27:11.000Z</time>
      </trkpt>
      <trkpt lat="58.087709" lon="26.645518">
        <ele>185.080097</ele>
        <time>2020-07-25T16:27:11.000Z</time>
      </trkpt>
      <trkpt lat="58.087643" lon="26.645243">
        <ele>185.027475</ele>
        <time>2020-07-25T16:27:13.000Z</time>
      </trkpt>
      <trkpt lat="58.087513" lon="26.645095">
        <ele>184.979705</ele>
        <time>2020-07-25T16:27:15.000Z</time>
      </trkpt>
      <trkpt lat="58.086703" lon="26.645117">
        <ele>184.707827</ele>
        <time>2020-07-25T16:27:24.000Z</time>
      </trkpt>
      <trkpt lat="58.08667" lon="26.645116">
        <ele>184.70221</ele>
        <time>2020-07-25T16:27:24.000Z</time>
      </trkpt>
      <trkpt lat="58.086525" lon="26.645093">
        <ele>184.65173</ele>
        <time>2020-07-25T16:27:26.000Z</time>
      </trkpt>
      <trkpt lat="58.086248" lon="26.645089">
        <ele>184.700144</ele>
        <time>2020-07-25T16:27:29.000Z</time>
      </trkpt>
      <trkpt lat="58.085725" lon="26.644865">
        <ele>185.160404</ele>
        <time>2020-07-25T16:27:35.000Z</time>
      </trkpt>
      <trkpt lat="58.085069" lon="26.644464">
        <ele>185.742657</ele>
        <time>2020-07-25T16:27:43.000Z</time>
      </trkpt>
      <trkpt lat="58.085003" lon="26.644367">
        <ele>185.820958</ele>
        <time>2020-07-25T16:27:44.000Z</time>
      </trkpt>
      <trkpt lat="58.084952" lon="26.644297">
        <ele>185.870246</ele>
        <time>2020-07-25T16:27:45.000Z</time>
      </trkpt>
      <trkpt lat="58.084458" lon="26.644016">
        <ele>186.694836</ele>
        <time>2020-07-25T16:27:51.000Z</time>
      </trkpt>
      <trkpt lat="58.084338" lon="26.643989">
        <ele>187.00199</ele>
        <time>2020-07-25T16:27:52.000Z</time>
      </trkpt>
      <trkpt lat="58.084234" lon="26.644113">
        <ele>187.323818</ele>
        <time>2020-07-25T16:27:53.000Z</time>
      </trkpt>
      <trkpt lat="58.084124" lon="26.644217">
        <ele>187.643023</ele>
        <time>2020-07-25T16:27:54.000Z</time>
      </trkpt>
      <trkpt lat="58.083945" lon="26.644449">
        <ele>188.225494</ele>
        <time>2020-07-25T16:27:56.000Z</time>
      </trkpt>
      <trkpt lat="58.083879" lon="26.644542">
        <ele>188.423781</ele>
        <time>2020-07-25T16:27:57.000Z</time>
      </trkpt>
      <trkpt lat="58.083913" lon="26.644665">
        <ele>188.632695</ele>
        <time>2020-07-25T16:27:58.000Z</time>
      </trkpt>
      <trkpt lat="58.083933" lon="26.644678">
        <ele>188.64635</ele>
        <time>2020-07-25T16:27:58.000Z</time>
      </trkpt>
      <trkpt lat="58.083937" lon="26.644685">
        <ele>188.672351</ele>
        <time>2020-07-25T16:27:58.000Z</time>
      </trkpt>
      <trkpt lat="58.083935" lon="26.644693">
        <ele>188.677299</ele>
        <time>2020-07-25T16:27:58.000Z</time>
      </trkpt>
      <trkpt lat="58.083943" lon="26.644757">
        <ele>188.791032</ele>
        <time>2020-07-25T16:27:58.000Z</time>
      </trkpt>
      <trkpt lat="58.08406" lon="26.64517">
        <ele>189.435109</ele>
        <time>2020-07-25T16:28:01.000Z</time>
      </trkpt>
      <trkpt lat="58.084236" lon="26.645616">
        <ele>190.207564</ele>
        <time>2020-07-25T16:28:04.000Z</time>
      </trkpt>
      <trkpt lat="58.084751" lon="26.646646">
        <ele>192.808177</ele>
        <time>2020-07-25T16:28:12.000Z</time>
      </trkpt>
      <trkpt lat="58.084856" lon="26.646918">
        <ele>193.508747</ele>
        <time>2020-07-25T16:28:14.000Z</time>
      </trkpt>
      <trkpt lat="58.085023" lon="26.647301">
        <ele>194.52086</ele>
        <time>2020-07-25T16:28:17.000Z</time>
      </trkpt>
      <trkpt lat="58.085377" lon="26.648269">
        <ele>196.978357</ele>
        <time>2020-07-25T16:28:24.000Z</time>
      </trkpt>
      <trkpt lat="58.085405" lon="26.648333">
        <ele>197.143412</ele>
        <time>2020-07-25T16:28:24.000Z</time>
      </trkpt>
      <trkpt lat="58.085891" lon="26.650144">
        <ele>198.739408</ele>
        <time>2020-07-25T16:28:36.000Z</time>
      </trkpt>
      <trkpt lat="58.086245" lon="26.651782">
        <ele>199.545957</ele>
        <time>2020-07-25T16:28:46.000Z</time>
      </trkpt>
      <trkpt lat="58.086284" lon="26.651925">
        <ele>199.40184</ele>
        <time>2020-07-25T16:28:47.000Z</time>
      </trkpt>
      <trkpt lat="58.086346" lon="26.652242">
        <ele>199.09052</ele>
        <time>2020-07-25T16:28:49.000Z</time>
      </trkpt>
      <trkpt lat="58.086365" lon="26.652447">
        <ele>198.890869</ele>
        <time>2020-07-25T16:28:50.000Z</time>
      </trkpt>
      <trkpt lat="58.086403" lon="26.65271">
        <ele>198.63311</ele>
        <time>2020-07-25T16:28:52.000Z</time>
      </trkpt>
      <trkpt lat="58.086591" lon="26.654333">
        <ele>197.058073</ele>
        <time>2020-07-25T16:29:02.000Z</time>
      </trkpt>
      <trkpt lat="58.086937" lon="26.65607">
        <ele>195.44095</ele>
        <time>2020-07-25T16:29:13.000Z</time>
      </trkpt>
      <trkpt lat="58.086291" lon="26.659819">
        <ele>191.404883</ele>
        <time>2020-07-25T16:29:36.000Z</time>
      </trkpt>
      <trkpt lat="58.086059" lon="26.660628">
        <ele>190.180806</ele>
        <time>2020-07-25T16:29:41.000Z</time>
      </trkpt>
      <trkpt lat="58.084851" lon="26.662685">
        <ele>184.311008</ele>
        <time>2020-07-25T16:29:59.000Z</time>
      </trkpt>
      <trkpt lat="58.084518" lon="26.663265">
        <ele>182.494116</ele>
        <time>2020-07-25T16:30:04.000Z</time>
      </trkpt>
      <trkpt lat="58.084153" lon="26.663698">
        <ele>180.780751</ele>
        <time>2020-07-25T16:30:09.000Z</time>
      </trkpt>
      <trkpt lat="58.084105" lon="26.66377">
        <ele>180.499757</ele>
        <time>2020-07-25T16:30:10.000Z</time>
      </trkpt>
      <trkpt lat="58.084084" lon="26.663798">
        <ele>180.412956</ele>
        <time>2020-07-25T16:30:10.000Z</time>
      </trkpt>
      <trkpt lat="58.084052" lon="26.663846">
        <ele>180.272457</ele>
        <time>2020-07-25T16:30:10.000Z</time>
      </trkpt>
      <trkpt lat="58.083806" lon="26.664147">
        <ele>179.095973</ele>
        <time>2020-07-25T16:30:13.000Z</time>
      </trkpt>
      <trkpt lat="58.083752" lon="26.664221">
        <ele>178.795566</ele>
        <time>2020-07-25T16:30:14.000Z</time>
      </trkpt>
      <trkpt lat="58.083711" lon="26.664269">
        <ele>178.577392</ele>
        <time>2020-07-25T16:30:15.000Z</time>
      </trkpt>
      <trkpt lat="58.083706" lon="26.664271">
        <ele>178.553404</ele>
        <time>2020-07-25T16:30:15.000Z</time>
      </trkpt>
      <trkpt lat="58.083629" lon="26.664374">
        <ele>178.20047</ele>
        <time>2020-07-25T16:30:16.000Z</time>
      </trkpt>
      <trkpt lat="58.083266" lon="26.66508">
        <ele>176.110305</ele>
        <time>2020-07-25T16:30:22.000Z</time>
      </trkpt>
      <trkpt lat="58.082947" lon="26.665963">
        <ele>173.805206</ele>
        <time>2020-07-25T16:30:28.000Z</time>
      </trkpt>
      <trkpt lat="58.082806" lon="26.666491">
        <ele>172.469373</ele>
        <time>2020-07-25T16:30:31.000Z</time>
      </trkpt>
      <trkpt lat="58.082539" lon="26.668112">
        <ele>168.752041</ele>
        <time>2020-07-25T16:30:41.000Z</time>
      </trkpt>
      <trkpt lat="58.082414" lon="26.669556">
        <ele>165.861094</ele>
        <time>2020-07-25T16:30:50.000Z</time>
      </trkpt>
      <trkpt lat="58.082374" lon="26.673155">
        <ele>160.363979</ele>
        <time>2020-07-25T16:31:11.000Z</time>
      </trkpt>
      <trkpt lat="58.08228" lon="26.674281">
        <ele>159.126608</ele>
        <time>2020-07-25T16:31:18.000Z</time>
      </trkpt>
      <trkpt lat="58.08203" lon="26.675826">
        <ele>157.580288</ele>
        <time>2020-07-25T16:31:28.000Z</time>
      </trkpt>
      <trkpt lat="58.08171" lon="26.677126">
        <ele>157.197751</ele>
        <time>2020-07-25T16:31:36.000Z</time>
      </trkpt>
      <trkpt lat="58.081505" lon="26.677757">
        <ele>157.004606</ele>
        <time>2020-07-25T16:31:40.000Z</time>
      </trkpt>
      <trkpt lat="58.081153" lon="26.678626">
        <ele>156.760148</ele>
        <time>2020-07-25T16:31:46.000Z</time>
      </trkpt>
      <trkpt lat="58.080128" lon="26.680393">
        <ele>157.20771</ele>
        <time>2020-07-25T16:32:01.000Z</time>
      </trkpt>
      <trkpt lat="58.079102" lon="26.681705">
        <ele>158.163088</ele>
        <time>2020-07-25T16:32:15.000Z</time>
      </trkpt>
      <trkpt lat="58.078843" lon="26.682223">
        <ele>158.522693</ele>
        <time>2020-07-25T16:32:19.000Z</time>
      </trkpt>
      <trkpt lat="58.078779" lon="26.682501">
        <ele>158.683496</ele>
        <time>2020-07-25T16:32:21.000Z</time>
      </trkpt>
      <trkpt lat="58.07869" lon="26.683514">
        <ele>159.316217</ele>
        <time>2020-07-25T16:32:27.000Z</time>
      </trkpt>
      <trkpt lat="58.078743" lon="26.684121">
        <ele>159.880879</ele>
        <time>2020-07-25T16:32:31.000Z</time>
      </trkpt>
      <trkpt lat="58.079051" lon="26.686039">
        <ele>161.698326</ele>
        <time>2020-07-25T16:32:43.000Z</time>
      </trkpt>
      <trkpt lat="58.079101" lon="26.688688">
        <ele>163.658825</ele>
        <time>2020-07-25T16:32:59.000Z</time>
      </trkpt>
      <trkpt lat="58.079005" lon="26.68954">
        <ele>164.266765</ele>
        <time>2020-07-25T16:33:04.000Z</time>
      </trkpt>
      <trkpt lat="58.07875" lon="26.691085">
        <ele>165.155458</ele>
        <time>2020-07-25T16:33:14.000Z</time>
      </trkpt>
      <trkpt lat="58.078511" lon="26.692027">
        <ele>165.690395</ele>
        <time>2020-07-25T16:33:20.000Z</time>
      </trkpt>
      <trkpt lat="58.078019" lon="26.693041">
        <ele>166.290439</ele>
        <time>2020-07-25T16:33:28.000Z</time>
      </trkpt>
      <trkpt lat="58.077648" lon="26.694254">
        <ele>166.539834</ele>
        <time>2020-07-25T16:33:36.000Z</time>
      </trkpt>
      <trkpt lat="58.076505" lon="26.696516">
        <ele>166.452335</ele>
        <time>2020-07-25T16:33:54.000Z</time>
      </trkpt>
      <trkpt lat="58.076098" lon="26.697606">
        <ele>166.08479</ele>
        <time>2020-07-25T16:34:02.000Z</time>
      </trkpt>
      <trkpt lat="58.076102" lon="26.697632">
        <ele>166.081642</ele>
        <time>2020-07-25T16:34:02.000Z</time>
      </trkpt>
      <trkpt lat="58.076092" lon="26.697642">
        <ele>166.078412</ele>
        <time>2020-07-25T16:34:02.000Z</time>
      </trkpt>
      <trkpt lat="58.076103" lon="26.697653">
        <ele>166.073316</ele>
        <time>2020-07-25T16:34:02.000Z</time>
      </trkpt>
      <trkpt lat="58.076097" lon="26.697657">
        <ele>166.06891</ele>
        <time>2020-07-25T16:34:02.000Z</time>
      </trkpt>
      <trkpt lat="58.075895" lon="26.697989">
        <ele>165.934099</ele>
        <time>2020-07-25T16:34:05.000Z</time>
      </trkpt>
      <trkpt lat="58.075869" lon="26.698057">
        <ele>165.909959</ele>
        <time>2020-07-25T16:34:05.000Z</time>
      </trkpt>
      <trkpt lat="58.075829" lon="26.698093">
        <ele>165.862539</ele>
        <time>2020-07-25T16:34:05.000Z</time>
      </trkpt>
      <trkpt lat="58.075816" lon="26.698109">
        <ele>165.842618</ele>
        <time>2020-07-25T16:34:05.000Z</time>
      </trkpt>
      <trkpt lat="58.075773" lon="26.698204">
        <ele>165.745107</ele>
        <time>2020-07-25T16:34:06.000Z</time>
      </trkpt>
      <trkpt lat="58.075215" lon="26.698911">
        <ele>164.835016</ele>
        <time>2020-07-25T16:34:13.000Z</time>
      </trkpt>
      <trkpt lat="58.074791" lon="26.699801">
        <ele>163.955023</ele>
        <time>2020-07-25T16:34:20.000Z</time>
      </trkpt>
      <trkpt lat="58.074593" lon="26.70031">
        <ele>163.502527</ele>
        <time>2020-07-25T16:34:24.000Z</time>
      </trkpt>
      <trkpt lat="58.07377" lon="26.70311">
        <ele>160.715767</ele>
        <time>2020-07-25T16:34:43.000Z</time>
      </trkpt>
      <trkpt lat="58.07322" lon="26.704256">
        <ele>159.379881</ele>
        <time>2020-07-25T16:34:52.000Z</time>
      </trkpt>
      <trkpt lat="58.072387" lon="26.705545">
        <ele>157.626743</ele>
        <time>2020-07-25T16:35:04.000Z</time>
      </trkpt>
      <trkpt lat="58.072223" lon="26.705909">
        <ele>157.063721</ele>
        <time>2020-07-25T16:35:07.000Z</time>
      </trkpt>
      <trkpt lat="58.072046" lon="26.70649">
        <ele>156.216571</ele>
        <time>2020-07-25T16:35:11.000Z</time>
      </trkpt>
      <trkpt lat="58.071693" lon="26.707648">
        <ele>154.488454</ele>
        <time>2020-07-25T16:35:19.000Z</time>
      </trkpt>
      <trkpt lat="58.070708" lon="26.70995">
        <ele>150.861138</ele>
        <time>2020-07-25T16:35:36.000Z</time>
      </trkpt>
      <trkpt lat="58.070038" lon="26.711477">
        <ele>149.428643</ele>
        <time>2020-07-25T16:35:48.000Z</time>
      </trkpt>
      <trkpt lat="58.07003" lon="26.711539">
        <ele>149.467643</ele>
        <time>2020-07-25T16:35:48.000Z</time>
      </trkpt>
      <trkpt lat="58.070017" lon="26.711538">
        <ele>149.474989</ele>
        <time>2020-07-25T16:35:48.000Z</time>
      </trkpt>
      <trkpt lat="58.070029" lon="26.711529">
        <ele>149.482353</ele>
        <time>2020-07-25T16:35:48.000Z</time>
      </trkpt>
      <trkpt lat="58.070052" lon="26.711492">
        <ele>149.521353</ele>
        <time>2020-07-25T16:35:48.000Z</time>
      </trkpt>
      <trkpt lat="58.070702" lon="26.70994">
        <ele>150.764914</ele>
        <time>2020-07-25T16:36:00.000Z</time>
      </trkpt>
      <trkpt lat="58.071702" lon="26.707656">
        <ele>154.544657</ele>
        <time>2020-07-25T16:36:17.000Z</time>
      </trkpt>
      <trkpt lat="58.072055" lon="26.706487">
        <ele>156.483003</ele>
        <time>2020-07-25T16:36:25.000Z</time>
      </trkpt>
      <trkpt lat="58.072234" lon="26.705902">
        <ele>157.094886</ele>
        <time>2020-07-25T16:36:29.000Z</time>
      </trkpt>
      <trkpt lat="58.072385" lon="26.705546">
        <ele>157.532644</ele>
        <time>2020-07-25T16:36:32.000Z</time>
      </trkpt>
      <trkpt lat="58.073216" lon="26.70427">
        <ele>159.395995</ele>
        <time>2020-07-25T16:36:44.000Z</time>
      </trkpt>
      <trkpt lat="58.073755" lon="26.703118">
        <ele>160.725149</ele>
        <time>2020-07-25T16:36:53.000Z</time>
      </trkpt>
      <trkpt lat="58.074585" lon="26.700305">
        <ele>163.43948</ele>
        <time>2020-07-25T16:37:12.000Z</time>
      </trkpt>
      <trkpt lat="58.074783" lon="26.699814">
        <ele>163.953582</ele>
        <time>2020-07-25T16:37:16.000Z</time>
      </trkpt>
      <trkpt lat="58.075223" lon="26.698912">
        <ele>164.953364</ele>
        <time>2020-07-25T16:37:23.000Z</time>
      </trkpt>
      <trkpt lat="58.075766" lon="26.69821">
        <ele>165.619186</ele>
        <time>2020-07-25T16:37:30.000Z</time>
      </trkpt>
      <trkpt lat="58.075825" lon="26.698119">
        <ele>165.679001</ele>
        <time>2020-07-25T16:37:31.000Z</time>
      </trkpt>
      <trkpt lat="58.075836" lon="26.698094">
        <ele>165.691214</ele>
        <time>2020-07-25T16:37:31.000Z</time>
      </trkpt>
      <trkpt lat="58.075862" lon="26.698045">
        <ele>165.72174</ele>
        <time>2020-07-25T16:37:31.000Z</time>
      </trkpt>
      <trkpt lat="58.0759" lon="26.697993">
        <ele>165.760819</ele>
        <time>2020-07-25T16:37:32.000Z</time>
      </trkpt>
      <trkpt lat="58.076094" lon="26.697654">
        <ele>165.979071</ele>
        <time>2020-07-25T16:37:35.000Z</time>
      </trkpt>
      <trkpt lat="58.076101" lon="26.697645">
        <ele>165.986204</ele>
        <time>2020-07-25T16:37:35.000Z</time>
      </trkpt>
      <trkpt lat="58.076106" lon="26.69763">
        <ele>165.994459</ele>
        <time>2020-07-25T16:37:35.000Z</time>
      </trkpt>
      <trkpt lat="58.076097" lon="26.697627">
        <ele>165.999696</ele>
        <time>2020-07-25T16:37:35.000Z</time>
      </trkpt>
      <trkpt lat="58.076112" lon="26.697611">
        <ele>166.004796</ele>
        <time>2020-07-25T16:37:35.000Z</time>
      </trkpt>
      <trkpt lat="58.076507" lon="26.696515">
        <ele>166.599821</ele>
        <time>2020-07-25T16:37:43.000Z</time>
      </trkpt>
      <trkpt lat="58.077637" lon="26.694246">
        <ele>166.640211</ele>
        <time>2020-07-25T16:38:01.000Z</time>
      </trkpt>
      <trkpt lat="58.078025" lon="26.693052">
        <ele>166.241341</ele>
        <time>2020-07-25T16:38:09.000Z</time>
      </trkpt>
      <trkpt lat="58.078504" lon="26.692035">
        <ele>165.644883</ele>
        <time>2020-07-25T16:38:17.000Z</time>
      </trkpt>
      <trkpt lat="58.07876" lon="26.691089">
        <ele>165.189704</ele>
        <time>2020-07-25T16:38:23.000Z</time>
      </trkpt>
      <trkpt lat="58.078998" lon="26.689537">
        <ele>164.222178</ele>
        <time>2020-07-25T16:38:33.000Z</time>
      </trkpt>
      <trkpt lat="58.079097" lon="26.688703">
        <ele>163.694921</ele>
        <time>2020-07-25T16:38:38.000Z</time>
      </trkpt>
      <trkpt lat="58.079059" lon="26.686039">
        <ele>161.623441</ele>
        <time>2020-07-25T16:38:54.000Z</time>
      </trkpt>
      <trkpt lat="58.078739" lon="26.684132">
        <ele>159.906683</ele>
        <time>2020-07-25T16:39:06.000Z</time>
      </trkpt>
      <trkpt lat="58.078692" lon="26.683511">
        <ele>159.472989</ele>
        <time>2020-07-25T16:39:10.000Z</time>
      </trkpt>
      <trkpt lat="58.078763" lon="26.682502">
        <ele>158.770354</ele>
        <time>2020-07-25T16:39:16.000Z</time>
      </trkpt>
      <trkpt lat="58.078847" lon="26.68222">
        <ele>158.547385</ele>
        <time>2020-07-25T16:39:18.000Z</time>
      </trkpt>
      <trkpt lat="58.079115" lon="26.6817">
        <ele>158.048761</ele>
        <time>2020-07-25T16:39:22.000Z</time>
      </trkpt>
      <trkpt lat="58.080143" lon="26.680384">
        <ele>157.250717</ele>
        <time>2020-07-25T16:39:36.000Z</time>
      </trkpt>
      <trkpt lat="58.081155" lon="26.678614">
        <ele>156.92311</ele>
        <time>2020-07-25T16:39:51.000Z</time>
      </trkpt>
      <trkpt lat="58.081519" lon="26.67775">
        <ele>156.976959</ele>
        <time>2020-07-25T16:39:57.000Z</time>
      </trkpt>
      <trkpt lat="58.081716" lon="26.677141">
        <ele>157.012086</ele>
        <time>2020-07-25T16:40:01.000Z</time>
      </trkpt>
      <trkpt lat="58.082036" lon="26.675829">
        <ele>157.780716</ele>
        <time>2020-07-25T16:40:09.000Z</time>
      </trkpt>
      <trkpt lat="58.082274" lon="26.674293">
        <ele>159.04999</ele>
        <time>2020-07-25T16:40:18.000Z</time>
      </trkpt>
      <trkpt lat="58.082362" lon="26.673151">
        <ele>160.169831</ele>
        <time>2020-07-25T16:40:25.000Z</time>
      </trkpt>
      <trkpt lat="58.082412" lon="26.669558">
        <ele>165.856786</ele>
        <time>2020-07-25T16:40:46.000Z</time>
      </trkpt>
      <trkpt lat="58.082543" lon="26.668095">
        <ele>168.909406</ele>
        <time>2020-07-25T16:40:55.000Z</time>
      </trkpt>
      <trkpt lat="58.082803" lon="26.666483">
        <ele>172.416011</ele>
        <time>2020-07-25T16:41:05.000Z</time>
      </trkpt>
      <trkpt lat="58.082956" lon="26.665965">
        <ele>173.730688</ele>
        <time>2020-07-25T16:41:08.000Z</time>
      </trkpt>
      <trkpt lat="58.083267" lon="26.665084">
        <ele>176.048078</ele>
        <time>2020-07-25T16:41:14.000Z</time>
      </trkpt>
      <trkpt lat="58.083618" lon="26.664368">
        <ele>178.170144</ele>
        <time>2020-07-25T16:41:20.000Z</time>
      </trkpt>
      <trkpt lat="58.083708" lon="26.664272">
        <ele>178.528486</ele>
        <time>2020-07-25T16:41:21.000Z</time>
      </trkpt>
      <trkpt lat="58.083709" lon="26.66428">
        <ele>178.552823</ele>
        <time>2020-07-25T16:41:21.000Z</time>
      </trkpt>
      <trkpt lat="58.083745" lon="26.664208">
        <ele>178.774328</ele>
        <time>2020-07-25T16:41:22.000Z</time>
      </trkpt>
      <trkpt lat="58.083816" lon="26.664133">
        <ele>179.079336</ele>
        <time>2020-07-25T16:41:23.000Z</time>
      </trkpt>
      <trkpt lat="58.084062" lon="26.663839">
        <ele>180.264898</ele>
        <time>2020-07-25T16:41:26.000Z</time>
      </trkpt>
      <trkpt lat="58.084079" lon="26.663808">
        <ele>180.406287</ele>
        <time>2020-07-25T16:41:26.000Z</time>
      </trkpt>
      <trkpt lat="58.084092" lon="26.663775">
        <ele>180.493651</ele>
        <time>2020-07-25T16:41:26.000Z</time>
      </trkpt>
      <trkpt lat="58.084151" lon="26.663714">
        <ele>180.776478</ele>
        <time>2020-07-25T16:41:27.000Z</time>
      </trkpt>
      <trkpt lat="58.084515" lon="26.663259">
        <ele>182.505481</ele>
        <time>2020-07-25T16:41:32.000Z</time>
      </trkpt>
      <trkpt lat="58.084842" lon="26.662685">
        <ele>184.346534</ele>
        <time>2020-07-25T16:41:37.000Z</time>
      </trkpt>
      <trkpt lat="58.086047" lon="26.660613">
        <ele>190.127111</ele>
        <time>2020-07-25T16:41:55.000Z</time>
      </trkpt>
      <trkpt lat="58.08628" lon="26.659817">
        <ele>191.734316</ele>
        <time>2020-07-25T16:42:00.000Z</time>
      </trkpt>
      <trkpt lat="58.086925" lon="26.656066">
        <ele>195.222099</ele>
        <time>2020-07-25T16:42:23.000Z</time>
      </trkpt>
      <trkpt lat="58.086578" lon="26.654341">
        <ele>196.282539</ele>
        <time>2020-07-25T16:42:34.000Z</time>
      </trkpt>
      <trkpt lat="58.086406" lon="26.652709">
        <ele>196.963247</ele>
        <time>2020-07-25T16:42:44.000Z</time>
      </trkpt>
      <trkpt lat="58.086373" lon="26.652429">
        <ele>196.783439</ele>
        <time>2020-07-25T16:42:46.000Z</time>
      </trkpt>
      <trkpt lat="58.086479" lon="26.652277">
        <ele>196.618193</ele>
        <time>2020-07-25T16:42:47.000Z</time>
      </trkpt>
      <trkpt lat="58.086779" lon="26.651956">
        <ele>196.190299</ele>
        <time>2020-07-25T16:42:51.000Z</time>
      </trkpt>
      <trkpt lat="58.087036" lon="26.651978">
        <ele>195.866033</ele>
        <time>2020-07-25T16:42:54.000Z</time>
      </trkpt>
      <trkpt lat="58.087131" lon="26.651845">
        <ele>195.711078</ele>
        <time>2020-07-25T16:42:55.000Z</time>
      </trkpt>
      <trkpt lat="58.087198" lon="26.651731">
        <ele>195.608964</ele>
        <time>2020-07-25T16:42:56.000Z</time>
      </trkpt>
      <trkpt lat="58.087281" lon="26.651584">
        <ele>195.457433</ele>
        <time>2020-07-25T16:42:57.000Z</time>
      </trkpt>
      <trkpt lat="58.087932" lon="26.650932">
        <ele>194.07</ele>
        <time>2020-07-25T16:43:05.000Z</time>
      </trkpt>
      <trkpt lat="58.087978" lon="26.650893">
        <ele>193.887056</ele>
        <time>2020-07-25T16:43:06.000Z</time>
      </trkpt>
      <trkpt lat="58.088062" lon="26.65083">
        <ele>193.65147</ele>
        <time>2020-07-25T16:43:07.000Z</time>
      </trkpt>
      <trkpt lat="58.088359" lon="26.650565">
        <ele>192.598536</ele>
        <time>2020-07-25T16:43:11.000Z</time>
      </trkpt>
      <trkpt lat="58.088418" lon="26.650445">
        <ele>192.341019</ele>
        <time>2020-07-25T16:43:12.000Z</time>
      </trkpt>
      <trkpt lat="58.088462" lon="26.650198">
        <ele>191.876552</ele>
        <time>2020-07-25T16:43:14.000Z</time>
      </trkpt>
      <trkpt lat="58.088843" lon="26.648385">
        <ele>188.905504</ele>
        <time>2020-07-25T16:43:25.000Z</time>
      </trkpt>
      <trkpt lat="58.088922" lon="26.647726">
        <ele>188.231801</ele>
        <time>2020-07-25T16:43:29.000Z</time>
      </trkpt>
      <trkpt lat="58.089028" lon="26.647177">
        <ele>187.616901</ele>
        <time>2020-07-25T16:43:32.000Z</time>
      </trkpt>
      <trkpt lat="58.08904" lon="26.647172">
        <ele>187.608803</ele>
        <time>2020-07-25T16:43:32.000Z</time>
      </trkpt>
      <trkpt lat="58.089027" lon="26.647156">
        <ele>187.600421</ele>
        <time>2020-07-25T16:43:32.000Z</time>
      </trkpt>
      <trkpt lat="58.089039" lon="26.647135">
        <ele>187.575116</ele>
        <time>2020-07-25T16:43:32.000Z</time>
      </trkpt>
      <trkpt lat="58.089061" lon="26.647047">
        <ele>187.479995</ele>
        <time>2020-07-25T16:43:33.000Z</time>
      </trkpt>
      <trkpt lat="58.089014" lon="26.646858">
        <ele>187.263543</ele>
        <time>2020-07-25T16:43:34.000Z</time>
      </trkpt>
      <trkpt lat="58.088882" lon="26.6468">
        <ele>187.002783</ele>
        <time>2020-07-25T16:43:36.000Z</time>
      </trkpt>
      <trkpt lat="58.088735" lon="26.64682">
        <ele>186.717096</ele>
        <time>2020-07-25T16:43:38.000Z</time>
      </trkpt>
      <trkpt lat="58.088335" lon="26.646751">
        <ele>185.935099</ele>
        <time>2020-07-25T16:43:42.000Z</time>
      </trkpt>
      <trkpt lat="58.088062" lon="26.64665">
        <ele>185.664981</ele>
        <time>2020-07-25T16:43:45.000Z</time>
      </trkpt>
      <trkpt lat="58.087878" lon="26.646481">
        <ele>185.529707</ele>
        <time>2020-07-25T16:43:47.000Z</time>
      </trkpt>
      <trkpt lat="58.087767" lon="26.646167">
        <ele>185.398474</ele>
        <time>2020-07-25T16:43:49.000Z</time>
      </trkpt>
      <trkpt lat="58.087705" lon="26.645548">
        <ele>185.174388</ele>
        <time>2020-07-25T16:43:53.000Z</time>
      </trkpt>
      <trkpt lat="58.087703" lon="26.645508">
        <ele>185.163053</ele>
        <time>2020-07-25T16:43:53.000Z</time>
      </trkpt>
      <trkpt lat="58.08764" lon="26.64524">
        <ele>185.055712</ele>
        <time>2020-07-25T16:43:55.000Z</time>
      </trkpt>
      <trkpt lat="58.087522" lon="26.645086">
        <ele>184.958294</ele>
        <time>2020-07-25T16:43:57.000Z</time>
      </trkpt>
      <trkpt lat="58.086687" lon="26.645115">
        <ele>184.728642</ele>
        <time>2020-07-25T16:44:06.000Z</time>
      </trkpt>
      <trkpt lat="58.086679" lon="26.645106">
        <ele>184.736529</ele>
        <time>2020-07-25T16:44:06.000Z</time>
      </trkpt>
      <trkpt lat="58.086534" lon="26.645088">
        <ele>184.807602</ele>
        <time>2020-07-25T16:44:08.000Z</time>
      </trkpt>
      <trkpt lat="58.086242" lon="26.645081">
        <ele>184.935145</ele>
        <time>2020-07-25T16:44:11.000Z</time>
      </trkpt>
      <trkpt lat="58.085721" lon="26.644867">
        <ele>185.185161</ele>
        <time>2020-07-25T16:44:17.000Z</time>
      </trkpt>
      <trkpt lat="58.085074" lon="26.644477">
        <ele>185.70846</ele>
        <time>2020-07-25T16:44:25.000Z</time>
      </trkpt>
      <trkpt lat="58.085001" lon="26.644357">
        <ele>185.874587</ele>
        <time>2020-07-25T16:44:26.000Z</time>
      </trkpt>
      <trkpt lat="58.084964" lon="26.6443">
        <ele>185.979179</ele>
        <time>2020-07-25T16:44:27.000Z</time>
      </trkpt>
      <trkpt lat="58.084449" lon="26.644016">
        <ele>186.925148</ele>
        <time>2020-07-25T16:44:33.000Z</time>
      </trkpt>
      <trkpt lat="58.084345" lon="26.643998">
        <ele>187.135492</ele>
        <time>2020-07-25T16:44:34.000Z</time>
      </trkpt>
      <trkpt lat="58.084227" lon="26.644106">
        <ele>187.355927</ele>
        <time>2020-07-25T16:44:35.000Z</time>
      </trkpt>
      <trkpt lat="58.084139" lon="26.644219">
        <ele>187.574539</ele>
        <time>2020-07-25T16:44:36.000Z</time>
      </trkpt>
      <trkpt lat="58.083936" lon="26.644442">
        <ele>187.97348</ele>
        <time>2020-07-25T16:44:39.000Z</time>
      </trkpt>
      <trkpt lat="58.083892" lon="26.644529">
        <ele>188.109281</ele>
        <time>2020-07-25T16:44:40.000Z</time>
      </trkpt>
      <trkpt lat="58.083916" lon="26.644668">
        <ele>188.252363</ele>
        <time>2020-07-25T16:44:41.000Z</time>
      </trkpt>
      <trkpt lat="58.083921" lon="26.644666">
        <ele>188.26171</ele>
        <time>2020-07-25T16:44:41.000Z</time>
      </trkpt>
      <trkpt lat="58.083921" lon="26.64469">
        <ele>188.279512</ele>
        <time>2020-07-25T16:44:41.000Z</time>
      </trkpt>
      <trkpt lat="58.083928" lon="26.644691">
        <ele>188.282919</ele>
        <time>2020-07-25T16:44:41.000Z</time>
      </trkpt>
      <trkpt lat="58.083955" lon="26.644764">
        <ele>188.360813</ele>
        <time>2020-07-25T16:44:42.000Z</time>
      </trkpt>
      <trkpt lat="58.084069" lon="26.645166">
        <ele>188.934946</ele>
        <time>2020-07-25T16:44:45.000Z</time>
      </trkpt>
      <trkpt lat="58.084252" lon="26.645605">
        <ele>190.084839</ele>
        <time>2020-07-25T16:44:48.000Z</time>
      </trkpt>
      <trkpt lat="58.084752" lon="26.646649">
        <ele>193.020244</ele>
        <time>2020-07-25T16:44:56.000Z</time>
      </trkpt>
      <trkpt lat="58.084852" lon="26.646913">
        <ele>193.72074</ele>
        <time>2020-07-25T16:44:58.000Z</time>
      </trkpt>
      <trkpt lat="58.085008" lon="26.647289">
        <ele>194.73279</ele>
        <time>2020-07-25T16:45:01.000Z</time>
      </trkpt>
      <trkpt lat="58.085381" lon="26.64826">
        <ele>196.604844</ele>
        <time>2020-07-25T16:45:08.000Z</time>
      </trkpt>
      <trkpt lat="58.085393" lon="26.648332">
        <ele>196.701834</ele>
        <time>2020-07-25T16:45:08.000Z</time>
      </trkpt>
      <trkpt lat="58.085893" lon="26.650145">
        <ele>199.199008</ele>
        <time>2020-07-25T16:45:20.000Z</time>
      </trkpt>
      <trkpt lat="58.086253" lon="26.651777">
        <ele>199.100926</ele>
        <time>2020-07-25T16:45:30.000Z</time>
      </trkpt>
      <trkpt lat="58.086282" lon="26.651932">
        <ele>198.992912</ele>
        <time>2020-07-25T16:45:31.000Z</time>
      </trkpt>
      <trkpt lat="58.086333" lon="26.652239">
        <ele>198.759602</ele>
        <time>2020-07-25T16:45:33.000Z</time>
      </trkpt>
      <trkpt lat="58.086369" lon="26.652441">
        <ele>198.609987</ele>
        <time>2020-07-25T16:45:34.000Z</time>
      </trkpt>
      <trkpt lat="58.086397" lon="26.652705">
        <ele>198.416823</ele>
        <time>2020-07-25T16:45:36.000Z</time>
      </trkpt>
      <trkpt lat="58.086579" lon="26.654343">
        <ele>197.151905</ele>
        <time>2020-07-25T16:45:46.000Z</time>
      </trkpt>
      <trkpt lat="58.08693" lon="26.656065">
        <ele>195.446633</ele>
        <time>2020-07-25T16:45:57.000Z</time>
      </trkpt>
      <trkpt lat="58.086294" lon="26.659819">
        <ele>191.704251</ele>
        <time>2020-07-25T16:46:20.000Z</time>
      </trkpt>
      <trkpt lat="58.086056" lon="26.660615">
        <ele>190.485408</ele>
        <time>2020-07-25T16:46:25.000Z</time>
      </trkpt>
      <trkpt lat="58.084849" lon="26.662694">
        <ele>184.348697</ele>
        <time>2020-07-25T16:46:43.000Z</time>
      </trkpt>
      <trkpt lat="58.084521" lon="26.663263">
        <ele>182.51966</ele>
        <time>2020-07-25T16:46:48.000Z</time>
      </trkpt>
      <trkpt lat="58.08416" lon="26.663713">
        <ele>180.800959</ele>
        <time>2020-07-25T16:46:53.000Z</time>
      </trkpt>
      <trkpt lat="58.084104" lon="26.663771">
        <ele>180.519845</ele>
        <time>2020-07-25T16:46:54.000Z</time>
      </trkpt>
      <trkpt lat="58.084091" lon="26.663803">
        <ele>180.432996</ele>
        <time>2020-07-25T16:46:54.000Z</time>
      </trkpt>
      <trkpt lat="58.084053" lon="26.663846">
        <ele>180.292424</ele>
        <time>2020-07-25T16:46:54.000Z</time>
      </trkpt>
      <trkpt lat="58.083807" lon="26.664134">
        <ele>179.115367</ele>
        <time>2020-07-25T16:46:57.000Z</time>
      </trkpt>
      <trkpt lat="58.083747" lon="26.664219">
        <ele>178.814811</ele>
        <time>2020-07-25T16:46:58.000Z</time>
      </trkpt>
      <trkpt lat="58.083706" lon="26.66427">
        <ele>178.596551</ele>
        <time>2020-07-25T16:46:59.000Z</time>
      </trkpt>
      <trkpt lat="58.083692" lon="26.664269">
        <ele>178.572539</ele>
        <time>2020-07-25T16:46:59.000Z</time>
      </trkpt>
      <trkpt lat="58.083623" lon="26.66437">
        <ele>178.219445</ele>
        <time>2020-07-25T16:47:00.000Z</time>
      </trkpt>
      <trkpt lat="58.083271" lon="26.665079">
        <ele>176.094578</ele>
        <time>2020-07-25T16:47:06.000Z</time>
      </trkpt>
      <trkpt lat="58.082956" lon="26.66595">
        <ele>173.72707</ele>
        <time>2020-07-25T16:47:12.000Z</time>
      </trkpt>
      <trkpt lat="58.082809" lon="26.666496">
        <ele>172.383971</ele>
        <time>2020-07-25T16:47:16.000Z</time>
      </trkpt>
      <trkpt lat="58.082549" lon="26.668105">
        <ele>168.776001</ele>
        <time>2020-07-25T16:47:26.000Z</time>
      </trkpt>
      <trkpt lat="58.082407" lon="26.66955">
        <ele>166.000263</ele>
        <time>2020-07-25T16:47:35.000Z</time>
      </trkpt>
      <trkpt lat="58.082364" lon="26.673151">
        <ele>160.358978</ele>
        <time>2020-07-25T16:47:56.000Z</time>
      </trkpt>
      <trkpt lat="58.082277" lon="26.67429">
        <ele>158.832361</ele>
        <time>2020-07-25T16:48:03.000Z</time>
      </trkpt>
      <trkpt lat="58.082028" lon="26.675829">
        <ele>157.82302</ele>
        <time>2020-07-25T16:48:12.000Z</time>
      </trkpt>
      <trkpt lat="58.081709" lon="26.677135">
        <ele>157.077591</ele>
        <time>2020-07-25T16:48:20.000Z</time>
      </trkpt>
      <trkpt lat="58.081511" lon="26.67776">
        <ele>156.801722</ele>
        <time>2020-07-25T16:48:24.000Z</time>
      </trkpt>
      <trkpt lat="58.081138" lon="26.678615">
        <ele>156.889872</ele>
        <time>2020-07-25T16:48:31.000Z</time>
      </trkpt>
      <trkpt lat="58.080146" lon="26.680391">
        <ele>157.222604</ele>
        <time>2020-07-25T16:48:46.000Z</time>
      </trkpt>
      <trkpt lat="58.079111" lon="26.681705">
        <ele>158.033997</ele>
        <time>2020-07-25T16:49:00.000Z</time>
      </trkpt>
      <trkpt lat="58.078846" lon="26.682215">
        <ele>158.351097</ele>
        <time>2020-07-25T16:49:04.000Z</time>
      </trkpt>
      <trkpt lat="58.07878" lon="26.682506">
        <ele>158.618591</ele>
        <time>2020-07-25T16:49:06.000Z</time>
      </trkpt>
      <trkpt lat="58.078689" lon="26.683509">
        <ele>159.4616</ele>
        <time>2020-07-25T16:49:12.000Z</time>
      </trkpt>
      <trkpt lat="58.078728" lon="26.684131">
        <ele>159.981907</ele>
        <time>2020-07-25T16:49:16.000Z</time>
      </trkpt>
      <trkpt lat="58.079058" lon="26.686028">
        <ele>161.632296</ele>
        <time>2020-07-25T16:49:28.000Z</time>
      </trkpt>
      <trkpt lat="58.079093" lon="26.688696">
        <ele>163.764163</ele>
        <time>2020-07-25T16:49:44.000Z</time>
      </trkpt>
      <trkpt lat="58.079" lon="26.689553">
        <ele>164.258869</ele>
        <time>2020-07-25T16:49:49.000Z</time>
      </trkpt>
      <trkpt lat="58.078763" lon="26.691102">
        <ele>165.162244</ele>
        <time>2020-07-25T16:49:58.000Z</time>
      </trkpt>
      <trkpt lat="58.078502" lon="26.692042">
        <ele>165.726558</ele>
        <time>2020-07-25T16:50:04.000Z</time>
      </trkpt>
      <trkpt lat="58.078013" lon="26.693047">
        <ele>166.173979</ele>
        <time>2020-07-25T16:50:12.000Z</time>
      </trkpt>
      <trkpt lat="58.077633" lon="26.694244">
        <ele>166.63076</ele>
        <time>2020-07-25T16:50:20.000Z</time>
      </trkpt>
      <trkpt lat="58.076511" lon="26.696507">
        <ele>166.513747</ele>
        <time>2020-07-25T16:50:38.000Z</time>
      </trkpt>
      <trkpt lat="58.0761" lon="26.697615">
        <ele>166.115435</ele>
        <time>2020-07-25T16:50:46.000Z</time>
      </trkpt>
      <trkpt lat="58.076097" lon="26.697625">
        <ele>166.108653</ele>
        <time>2020-07-25T16:50:46.000Z</time>
      </trkpt>
      <trkpt lat="58.076107" lon="26.697642">
        <ele>166.101726</ele>
        <time>2020-07-25T16:50:46.000Z</time>
      </trkpt>
      <trkpt lat="58.076086" lon="26.697645">
        <ele>166.090777</ele>
        <time>2020-07-25T16:50:46.000Z</time>
      </trkpt>
      <trkpt lat="58.076092" lon="26.697663">
        <ele>166.081298</ele>
        <time>2020-07-25T16:50:46.000Z</time>
      </trkpt>
      <trkpt lat="58.075888" lon="26.697989">
        <ele>165.791548</ele>
        <time>2020-07-25T16:50:49.000Z</time>
      </trkpt>
      <trkpt lat="58.075867" lon="26.698047">
        <ele>165.739661</ele>
        <time>2020-07-25T16:50:49.000Z</time>
      </trkpt>
      <trkpt lat="58.075831" lon="26.698097">
        <ele>165.699135</ele>
        <time>2020-07-25T16:50:49.000Z</time>
      </trkpt>
      <trkpt lat="58.075821" lon="26.698117">
        <ele>165.682921</ele>
        <time>2020-07-25T16:50:49.000Z</time>
      </trkpt>
      <trkpt lat="58.075772" lon="26.698199">
        <ele>165.603504</ele>
        <time>2020-07-25T16:50:50.000Z</time>
      </trkpt>
      <trkpt lat="58.075214" lon="26.698909">
        <ele>164.862344</ele>
        <time>2020-07-25T16:50:57.000Z</time>
      </trkpt>
      <trkpt lat="58.074785" lon="26.699812">
        <ele>164.020757</ele>
        <time>2020-07-25T16:51:04.000Z</time>
      </trkpt>
      <trkpt lat="58.074592" lon="26.700317">
        <ele>163.481576</ele>
        <time>2020-07-25T16:51:08.000Z</time>
      </trkpt>
      <trkpt lat="58.073764" lon="26.703118">
        <ele>160.718065</ele>
        <time>2020-07-25T16:51:27.000Z</time>
      </trkpt>
      <trkpt lat="58.073216" lon="26.70426">
        <ele>159.401835</ele>
        <time>2020-07-25T16:51:36.000Z</time>
      </trkpt>
      <trkpt lat="58.072398" lon="26.705542">
        <ele>157.46616</ele>
        <time>2020-07-25T16:51:48.000Z</time>
      </trkpt>
      <trkpt lat="58.072228" lon="26.705904">
        <ele>156.966854</ele>
        <time>2020-07-25T16:51:51.000Z</time>
      </trkpt>
      <trkpt lat="58.072061" lon="26.706486">
        <ele>156.268952</ele>
        <time>2020-07-25T16:51:55.000Z</time>
      </trkpt>
      <trkpt lat="58.071686" lon="26.707648">
        <ele>154.776937</ele>
        <time>2020-07-25T16:52:03.000Z</time>
      </trkpt>
      <trkpt lat="58.070708" lon="26.70995">
        <ele>150.325187</ele>
        <time>2020-07-25T16:52:20.000Z</time>
      </trkpt>
      <trkpt lat="58.070036" lon="26.711477">
        <ele>149.777933</ele>
        <time>2020-07-25T16:52:32.000Z</time>
      </trkpt>
      <trkpt lat="58.070016" lon="26.711533">
        <ele>149.774476</ele>
        <time>2020-07-25T16:52:32.000Z</time>
      </trkpt>
      <trkpt lat="58.070022" lon="26.71155">
        <ele>149.773837</ele>
        <time>2020-07-25T16:52:32.000Z</time>
      </trkpt>
      <trkpt lat="58.070001" lon="26.711567">
        <ele>149.772182</ele>
        <time>2020-07-25T16:52:32.000Z</time>
      </trkpt>
      <trkpt lat="58.070024" lon="26.711532">
        <ele>149.770539</ele>
        <time>2020-07-25T16:52:32.000Z</time>
      </trkpt>
      <trkpt lat="58.070031" lon="26.711523">
        <ele>149.76988</ele>
        <time>2020-07-25T16:52:32.000Z</time>
      </trkpt>
      <trkpt lat="58.070045" lon="26.711484">
        <ele>149.766435</ele>
        <time>2020-07-25T16:52:32.000Z</time>
      </trkpt>
      <trkpt lat="58.070709" lon="26.709943">
        <ele>150.396071</ele>
        <time>2020-07-25T16:52:44.000Z</time>
      </trkpt>
      <trkpt lat="58.071689" lon="26.707657">
        <ele>154.778262</ele>
        <time>2020-07-25T16:53:01.000Z</time>
      </trkpt>
      <trkpt lat="58.072058" lon="26.706475">
        <ele>156.24143</ele>
        <time>2020-07-25T16:53:09.000Z</time>
      </trkpt>
      <trkpt lat="58.072231" lon="26.705901">
        <ele>156.958689</ele>
        <time>2020-07-25T16:53:13.000Z</time>
      </trkpt>
      <trkpt lat="58.07238" lon="26.705537">
        <ele>157.471813</ele>
        <time>2020-07-25T16:53:16.000Z</time>
      </trkpt>
      <trkpt lat="58.073211" lon="26.704269">
        <ele>159.398792</ele>
        <time>2020-07-25T16:53:28.000Z</time>
      </trkpt>
      <trkpt lat="58.073769" lon="26.703122">
        <ele>160.715882</ele>
        <time>2020-07-25T16:53:37.000Z</time>
      </trkpt>
      <trkpt lat="58.074591" lon="26.700316">
        <ele>163.490805</ele>
        <time>2020-07-25T16:53:56.000Z</time>
      </trkpt>
      <trkpt lat="58.074783" lon="26.699808">
        <ele>164.032376</ele>
        <time>2020-07-25T16:54:00.000Z</time>
      </trkpt>
      <trkpt lat="58.075224" lon="26.698917">
        <ele>164.847186</ele>
        <time>2020-07-25T16:54:07.000Z</time>
      </trkpt>
      <trkpt lat="58.075771" lon="26.698203">
        <ele>165.616236</ele>
        <time>2020-07-25T16:54:14.000Z</time>
      </trkpt>
      <trkpt lat="58.075816" lon="26.698119">
        <ele>165.69866</ele>
        <time>2020-07-25T16:54:15.000Z</time>
      </trkpt>
      <trkpt lat="58.075824" lon="26.698097">
        <ele>165.715474</ele>
        <time>2020-07-25T16:54:15.000Z</time>
      </trkpt>
      <trkpt lat="58.075864" lon="26.698044">
        <ele>165.757522</ele>
        <time>2020-07-25T16:54:16.000Z</time>
      </trkpt>
      <trkpt lat="58.075896" lon="26.697987">
        <ele>165.811368</ele>
        <time>2020-07-25T16:54:16.000Z</time>
      </trkpt>
      <trkpt lat="58.076098" lon="26.697662">
        <ele>166.112026</ele>
        <time>2020-07-25T16:54:19.000Z</time>
      </trkpt>
      <trkpt lat="58.076092" lon="26.697648">
        <ele>166.121859</ele>
        <time>2020-07-25T16:54:19.000Z</time>
      </trkpt>
      <trkpt lat="58.076098" lon="26.69764">
        <ele>166.133222</ele>
        <time>2020-07-25T16:54:19.000Z</time>
      </trkpt>
      <trkpt lat="58.076105" lon="26.697617">
        <ele>166.140424</ele>
        <time>2020-07-25T16:54:19.000Z</time>
      </trkpt>
      <trkpt lat="58.07611" lon="26.697622">
        <ele>166.147458</ele>
        <time>2020-07-25T16:54:19.000Z</time>
      </trkpt>
      <trkpt lat="58.076506" lon="26.696512">
        <ele>166.492407</ele>
        <time>2020-07-25T16:54:27.000Z</time>
      </trkpt>
      <trkpt lat="58.077642" lon="26.694252">
        <ele>166.60399</ele>
        <time>2020-07-25T16:54:45.000Z</time>
      </trkpt>
      <trkpt lat="58.078017" lon="26.693047">
        <ele>166.176805</ele>
        <time>2020-07-25T16:54:53.000Z</time>
      </trkpt>
      <trkpt lat="58.07851" lon="26.692031">
        <ele>165.736892</ele>
        <time>2020-07-25T16:55:01.000Z</time>
      </trkpt>
      <trkpt lat="58.07876" lon="26.691101">
        <ele>165.159362</ele>
        <time>2020-07-25T16:55:07.000Z</time>
      </trkpt>
      <trkpt lat="58.079002" lon="26.689554">
        <ele>164.268304</ele>
        <time>2020-07-25T16:55:16.000Z</time>
      </trkpt>
      <trkpt lat="58.079105" lon="26.688692">
        <ele>163.738727</ele>
        <time>2020-07-25T16:55:21.000Z</time>
      </trkpt>
      <trkpt lat="58.079056" lon="26.686039">
        <ele>161.647073</ele>
        <time>2020-07-25T16:55:37.000Z</time>
      </trkpt>
      <trkpt lat="58.078735" lon="26.684121">
        <ele>159.972243</ele>
        <time>2020-07-25T16:55:49.000Z</time>
      </trkpt>
      <trkpt lat="58.078701" lon="26.683499">
        <ele>159.441017</ele>
        <time>2020-07-25T16:55:53.000Z</time>
      </trkpt>
      <trkpt lat="58.078771" lon="26.682508">
        <ele>158.580293</ele>
        <time>2020-07-25T16:55:59.000Z</time>
      </trkpt>
      <trkpt lat="58.078848" lon="26.68223">
        <ele>158.324365</ele>
        <time>2020-07-25T16:56:01.000Z</time>
      </trkpt>
      <trkpt lat="58.07911" lon="26.681702">
        <ele>158.063009</ele>
        <time>2020-07-25T16:56:05.000Z</time>
      </trkpt>
      <trkpt lat="58.080133" lon="26.680392">
        <ele>157.20445</ele>
        <time>2020-07-25T16:56:19.000Z</time>
      </trkpt>
      <trkpt lat="58.081142" lon="26.678622">
        <ele>156.874029</ele>
        <time>2020-07-25T16:56:34.000Z</time>
      </trkpt>
      <trkpt lat="58.081515" lon="26.677744">
        <ele>156.772962</ele>
        <time>2020-07-25T16:56:41.000Z</time>
      </trkpt>
      <trkpt lat="58.081711" lon="26.677143">
        <ele>157.118654</ele>
        <time>2020-07-25T16:56:45.000Z</time>
      </trkpt>
      <trkpt lat="58.082032" lon="26.675828">
        <ele>157.803372</ele>
        <time>2020-07-25T16:56:54.000Z</time>
      </trkpt>
      <trkpt lat="58.082281" lon="26.674289">
        <ele>158.892741</ele>
        <time>2020-07-25T16:57:03.000Z</time>
      </trkpt>
      <trkpt lat="58.082371" lon="26.673156">
        <ele>160.380737</ele>
        <time>2020-07-25T16:57:10.000Z</time>
      </trkpt>
      <trkpt lat="58.082414" lon="26.669552">
        <ele>165.996347</ele>
        <time>2020-07-25T16:57:31.000Z</time>
      </trkpt>
      <trkpt lat="58.082554" lon="26.668109">
        <ele>168.72094</ele>
        <time>2020-07-25T16:57:40.000Z</time>
      </trkpt>
      <trkpt lat="58.08281" lon="26.666491">
        <ele>172.39016</ele>
        <time>2020-07-25T16:57:50.000Z</time>
      </trkpt>
      <trkpt lat="58.082953" lon="26.665964">
        <ele>173.736316</ele>
        <time>2020-07-25T16:57:53.000Z</time>
      </trkpt>
      <trkpt lat="58.08327" lon="26.66507">
        <ele>176.109169</ele>
        <time>2020-07-25T16:57:59.000Z</time>
      </trkpt>
      <trkpt lat="58.083621" lon="26.66437">
        <ele>178.220548</ele>
        <time>2020-07-25T16:58:05.000Z</time>
      </trkpt>
      <trkpt lat="58.083691" lon="26.664268">
        <ele>178.573486</ele>
        <time>2020-07-25T16:58:06.000Z</time>
      </trkpt>
      <trkpt lat="58.083698" lon="26.664272">
        <ele>178.597476</ele>
        <time>2020-07-25T16:58:06.000Z</time>
      </trkpt>
      <trkpt lat="58.08374" lon="26.664207">
        <ele>178.815646</ele>
        <time>2020-07-25T16:58:07.000Z</time>
      </trkpt>
      <trkpt lat="58.083807" lon="26.664141">
        <ele>179.116055</ele>
        <time>2020-07-25T16:58:08.000Z</time>
      </trkpt>
      <trkpt lat="58.084056" lon="26.66383">
        <ele>180.292562</ele>
        <time>2020-07-25T16:58:11.000Z</time>
      </trkpt>
      <trkpt lat="58.084079" lon="26.66381">
        <ele>180.433056</ele>
        <time>2020-07-25T16:58:11.000Z</time>
      </trkpt>
      <trkpt lat="58.084092" lon="26.663785">
        <ele>180.519867</ele>
        <time>2020-07-25T16:58:11.000Z</time>
      </trkpt>
      <trkpt lat="58.084151" lon="26.663701">
        <ele>180.800857</ele>
        <time>2020-07-25T16:58:12.000Z</time>
      </trkpt>
      <trkpt lat="58.084523" lon="26.663269">
        <ele>182.518753</ele>
        <time>2020-07-25T16:58:17.000Z</time>
      </trkpt>
      <trkpt lat="58.084849" lon="26.662699">
        <ele>184.326134</ele>
        <time>2020-07-25T16:58:22.000Z</time>
      </trkpt>
      <trkpt lat="58.086045" lon="26.660629">
        <ele>190.557296</ele>
        <time>2020-07-25T16:58:40.000Z</time>
      </trkpt>
      <trkpt lat="58.086291" lon="26.659802">
        <ele>191.62994</ele>
        <time>2020-07-25T16:58:46.000Z</time>
      </trkpt>
      <trkpt lat="58.086929" lon="26.656066">
        <ele>195.184118</ele>
        <time>2020-07-25T16:59:09.000Z</time>
      </trkpt>
      <trkpt lat="58.086589" lon="26.654333">
        <ele>196.484201</ele>
        <time>2020-07-25T16:59:20.000Z</time>
      </trkpt>
      <trkpt lat="58.086392" lon="26.652713">
        <ele>196.524586</ele>
        <time>2020-07-25T16:59:30.000Z</time>
      </trkpt>
      <trkpt lat="58.086366" lon="26.652434">
        <ele>196.502175</ele>
        <time>2020-07-25T16:59:32.000Z</time>
      </trkpt>
      <trkpt lat="58.086474" lon="26.652281">
        <ele>196.481576</ele>
        <time>2020-07-25T16:59:34.000Z</time>
      </trkpt>
      <trkpt lat="58.086765" lon="26.65196">
        <ele>196.428253</ele>
        <time>2020-07-25T16:59:38.000Z</time>
      </trkpt>
      <trkpt lat="58.087032" lon="26.651972">
        <ele>196.387832</ele>
        <time>2020-07-25T16:59:41.000Z</time>
      </trkpt>
      <trkpt lat="58.087141" lon="26.651845">
        <ele>196.368536</ele>
        <time>2020-07-25T16:59:42.000Z</time>
      </trkpt>
      <trkpt lat="58.087186" lon="26.651748">
        <ele>196.223778</ele>
        <time>2020-07-25T16:59:43.000Z</time>
      </trkpt>
      <trkpt lat="58.08728" lon="26.651592">
        <ele>195.87586</ele>
        <time>2020-07-25T16:59:44.000Z</time>
      </trkpt>
      <trkpt lat="58.087935" lon="26.650943">
        <ele>193.78446</ele>
        <time>2020-07-25T16:59:52.000Z</time>
      </trkpt>
      <trkpt lat="58.087983" lon="26.650897">
        <ele>193.616128</ele>
        <time>2020-07-25T16:59:53.000Z</time>
      </trkpt>
      <trkpt lat="58.088058" lon="26.65084">
        <ele>193.399354</ele>
        <time>2020-07-25T16:59:54.000Z</time>
      </trkpt>
      <trkpt lat="58.088357" lon="26.650567">
        <ele>192.430588</ele>
        <time>2020-07-25T16:59:58.000Z</time>
      </trkpt>
      <trkpt lat="58.088421" lon="26.650461">
        <ele>192.193654</ele>
        <time>2020-07-25T16:59:59.000Z</time>
      </trkpt>
      <trkpt lat="58.088479" lon="26.650182">
        <ele>191.766291</ele>
        <time>2020-07-25T17:00:01.000Z</time>
      </trkpt>
      <trkpt lat="58.088843" lon="26.648383">
        <ele>189.13611</ele>
        <time>2020-07-25T17:00:12.000Z</time>
      </trkpt>
      <trkpt lat="58.088914" lon="26.647735">
        <ele>188.264392</ele>
        <time>2020-07-25T17:00:16.000Z</time>
      </trkpt>
      <trkpt lat="58.089028" lon="26.647173">
        <ele>187.468758</ele>
        <time>2020-07-25T17:00:20.000Z</time>
      </trkpt>
      <trkpt lat="58.089044" lon="26.647168">
        <ele>187.458287</ele>
        <time>2020-07-25T17:00:20.000Z</time>
      </trkpt>
      <trkpt lat="58.089041" lon="26.647154">
        <ele>187.447458</ele>
        <time>2020-07-25T17:00:20.000Z</time>
      </trkpt>
      <trkpt lat="58.089043" lon="26.647138">
        <ele>187.414696</ele>
        <time>2020-07-25T17:00:20.000Z</time>
      </trkpt>
      <trkpt lat="58.089065" lon="26.647045">
        <ele>187.291629</ele>
        <time>2020-07-25T17:00:21.000Z</time>
      </trkpt>
      <trkpt lat="58.089004" lon="26.646855">
        <ele>187.01156</ele>
        <time>2020-07-25T17:00:22.000Z</time>
      </trkpt>
      <trkpt lat="58.08888" lon="26.6468">
        <ele>186.707569</ele>
        <time>2020-07-25T17:00:23.000Z</time>
      </trkpt>
      <trkpt lat="58.088728" lon="26.646818">
        <ele>186.550804</ele>
        <time>2020-07-25T17:00:25.000Z</time>
      </trkpt>
      <trkpt lat="58.088326" lon="26.646748">
        <ele>186.12169</ele>
        <time>2020-07-25T17:00:29.000Z</time>
      </trkpt>
      <trkpt lat="58.088063" lon="26.646658">
        <ele>185.830229</ele>
        <time>2020-07-25T17:00:32.000Z</time>
      </trkpt>
      <trkpt lat="58.087871" lon="26.64647">
        <ele>185.617542</ele>
        <time>2020-07-25T17:00:34.000Z</time>
      </trkpt>
      <trkpt lat="58.08777" lon="26.646161">
        <ele>185.411177</ele>
        <time>2020-07-25T17:00:36.000Z</time>
      </trkpt>
      <trkpt lat="58.087706" lon="26.645555">
        <ele>185.058878</ele>
        <time>2020-07-25T17:00:40.000Z</time>
      </trkpt>
      <trkpt lat="58.087695" lon="26.645518">
        <ele>185.041063</ele>
        <time>2020-07-25T17:00:40.000Z</time>
      </trkpt>
      <trkpt lat="58.087646" lon="26.645235">
        <ele>184.872289</ele>
        <time>2020-07-25T17:00:42.000Z</time>
      </trkpt>
      <trkpt lat="58.087514" lon="26.645091">
        <ele>184.761858654</ele>
        <time>2020-07-25T17:00:44.000Z</time>
      </trkpt>
      <trkpt lat="58.086686" lon="26.645118">
        <ele>184.161699831</ele>
        <time>2020-07-25T17:00:53.000Z</time>
      </trkpt>
      <trkpt lat="58.086682" lon="26.645102">
        <ele>184.154919105</ele>
        <time>2020-07-25T17:00:53.000Z</time>
      </trkpt>
      <trkpt lat="58.086524" lon="26.645094">
        <ele>184.040372044</ele>
        <time>2020-07-25T17:00:55.000Z</time>
      </trkpt>
      <trkpt lat="58.086257" lon="26.645088">
        <ele>183.846857662</ele>
        <time>2020-07-25T17:00:58.000Z</time>
      </trkpt>
      <trkpt lat="58.086155" lon="26.645047">
        <ele>183.771285549</ele>
        <time>2020-07-25T17:00:59.000Z</time>
      </trkpt>
    </trkseg>
  </trk>
</gpx>

<!--
Performance optimized by W3 Total Cache. Learn more: https://www.boldgrid.com/w3-total-cache/?utm_source=w3tc&utm_medium=footer_comment&utm_campaign=free_plugin

Page Caching using Disk: Enhanced{w3tc_pagecache_reject_reason} 

Served from: www.aquabike.world @ 2026-05-07 12:46:35 by W3 Total Cache
-->